<?xml version="1.0" encoding="UTF-8" standalone="no" ?>
<gpx xmlns="http://www.topografix.com/GPX/1/1" xmlns:xsi="http://www.w3.org/2001/XMLSchema-instance" xsi:schemaLocation="http://www.topografix.com/GPX/1/1 http://www.topografix.com/GPX/1/1/gpx.xsd" version="1.1" creator="VisuGPX - https://www.visugpx.com">
  <metadata>
    <name>VacancesDricouZoe</name>
  </metadata>
  <trk>
    <name><![CDATA[Journal actif: 2021-07-02 16:07]]></name>
    <trkseg>
      <trkpt lat="44.46058" lon="-1.24534">
        <ele>6.87</ele>
        <time>2021-07-02T18:07:59Z</time>
      </trkpt>
      <trkpt lat="44.46044" lon="-1.245">
        <ele>-0.34</ele>
        <time>2021-07-02T18:08:13Z</time>
      </trkpt>
      <trkpt lat="44.46022" lon="-1.24492">
        <ele>-9.48</ele>
        <time>2021-07-02T18:08:25Z</time>
      </trkpt>
      <trkpt lat="44.46011" lon="-1.24494">
        <ele>-13.32</ele>
        <time>2021-07-02T18:08:30Z</time>
      </trkpt>
      <trkpt lat="44.46008" lon="-1.24494">
        <ele>-14.28</ele>
        <time>2021-07-02T18:08:31Z</time>
      </trkpt>
      <trkpt lat="44.46006" lon="-1.24494">
        <ele>-15.24</ele>
        <time>2021-07-02T18:08:32Z</time>
      </trkpt>
      <trkpt lat="44.46003" lon="-1.24495">
        <ele>-15.24</ele>
        <time>2021-07-02T18:08:33Z</time>
      </trkpt>
      <trkpt lat="44.46001" lon="-1.24495">
        <ele>-15.72</ele>
        <time>2021-07-02T18:08:34Z</time>
      </trkpt>
      <trkpt lat="44.45969" lon="-1.24508">
        <ele>-23.41</ele>
        <time>2021-07-02T18:08:48Z</time>
      </trkpt>
      <trkpt lat="44.45941" lon="-1.2452">
        <ele>-29.18</ele>
        <time>2021-07-02T18:09:00Z</time>
      </trkpt>
      <trkpt lat="44.45925" lon="-1.24527">
        <ele>-27.74</ele>
        <time>2021-07-02T18:09:06Z</time>
      </trkpt>
      <trkpt lat="44.45925" lon="-1.24527">
        <ele>-26.3</ele>
        <time>2021-07-02T18:09:17Z</time>
      </trkpt>
      <trkpt lat="44.45895" lon="-1.24527">
        <ele>-28.22</ele>
        <time>2021-07-02T18:09:26Z</time>
      </trkpt>
      <trkpt lat="44.45893" lon="-1.24526">
        <ele>-28.22</ele>
        <time>2021-07-02T18:09:27Z</time>
      </trkpt>
      <trkpt lat="44.45891" lon="-1.24525">
        <ele>-28.22</ele>
        <time>2021-07-02T18:09:28Z</time>
      </trkpt>
      <trkpt lat="44.45884" lon="-1.24521">
        <ele>-29.18</ele>
        <time>2021-07-02T18:09:40Z</time>
      </trkpt>
      <trkpt lat="44.45884" lon="-1.24521">
        <ele>-29.66</ele>
        <time>2021-07-02T18:10:19Z</time>
      </trkpt>
      <trkpt lat="44.45884" lon="-1.24521">
        <ele>-29.66</ele>
        <time>2021-07-02T18:11:07Z</time>
      </trkpt>
      <trkpt lat="44.45884" lon="-1.24521">
        <ele>-29.18</ele>
        <time>2021-07-02T18:12:12Z</time>
      </trkpt>
      <trkpt lat="44.45884" lon="-1.24521">
        <ele>-28.7</ele>
        <time>2021-07-02T18:13:29Z</time>
      </trkpt>
      <trkpt lat="44.45884" lon="-1.24521">
        <ele>-28.22</ele>
        <time>2021-07-02T18:15:00Z</time>
      </trkpt>
      <trkpt lat="44.45884" lon="-1.24521">
        <ele>-27.26</ele>
        <time>2021-07-02T18:16:38Z</time>
      </trkpt>
      <trkpt lat="44.45884" lon="-1.24521">
        <ele>-26.3</ele>
        <time>2021-07-02T18:17:55Z</time>
      </trkpt>
      <trkpt lat="44.45884" lon="-1.24521">
        <ele>-25.82</ele>
        <time>2021-07-02T18:19:07Z</time>
      </trkpt>
      <trkpt lat="44.45884" lon="-1.24521">
        <ele>-25.34</ele>
        <time>2021-07-02T18:20:34Z</time>
      </trkpt>
      <trkpt lat="44.45884" lon="-1.24521">
        <ele>-25.34</ele>
        <time>2021-07-02T18:21:44Z</time>
      </trkpt>
      <trkpt lat="44.45884" lon="-1.24521">
        <ele>-25.34</ele>
        <time>2021-07-02T18:23:05Z</time>
      </trkpt>
      <trkpt lat="44.45869" lon="-1.24498">
        <ele>-26.78</ele>
        <time>2021-07-02T18:23:49Z</time>
      </trkpt>
      <trkpt lat="44.45847" lon="-1.24465">
        <ele>-25.34</ele>
        <time>2021-07-02T18:24:02Z</time>
      </trkpt>
      <trkpt lat="44.45812" lon="-1.24403">
        <ele>-14.76</ele>
        <time>2021-07-02T18:24:16Z</time>
      </trkpt>
      <trkpt lat="44.45795" lon="-1.2436">
        <ele>-11.88</ele>
        <time>2021-07-02T18:24:26Z</time>
      </trkpt>
      <trkpt lat="44.45789" lon="-1.24345">
        <ele>-12.36</ele>
        <time>2021-07-02T18:24:29Z</time>
      </trkpt>
      <trkpt lat="44.45787" lon="-1.24339">
        <ele>-12.36</ele>
        <time>2021-07-02T18:24:30Z</time>
      </trkpt>
      <trkpt lat="44.45785" lon="-1.24333">
        <ele>-12.36</ele>
        <time>2021-07-02T18:24:31Z</time>
      </trkpt>
      <trkpt lat="44.45785" lon="-1.24327">
        <ele>-12.84</ele>
        <time>2021-07-02T18:24:32Z</time>
      </trkpt>
      <trkpt lat="44.45785" lon="-1.24319">
        <ele>-12.84</ele>
        <time>2021-07-02T18:24:33Z</time>
      </trkpt>
      <trkpt lat="44.45785" lon="-1.24305">
        <ele>-12.84</ele>
        <time>2021-07-02T18:24:35Z</time>
      </trkpt>
      <trkpt lat="44.45785" lon="-1.24297">
        <ele>-12.36</ele>
        <time>2021-07-02T18:24:36Z</time>
      </trkpt>
      <trkpt lat="44.45785" lon="-1.24281">
        <ele>-11.88</ele>
        <time>2021-07-02T18:24:37Z</time>
      </trkpt>
      <trkpt lat="44.45785" lon="-1.24281">
        <ele>-11.4</ele>
        <time>2021-07-02T18:24:38Z</time>
      </trkpt>
      <trkpt lat="44.4578" lon="-1.24266">
        <ele>-10.92</ele>
        <time>2021-07-02T18:24:39Z</time>
      </trkpt>
      <trkpt lat="44.45774" lon="-1.24244">
        <ele>-9.48</ele>
        <time>2021-07-02T18:24:43Z</time>
      </trkpt>
      <trkpt lat="44.45769" lon="-1.2423">
        <ele>-9</ele>
        <time>2021-07-02T18:24:45Z</time>
      </trkpt>
      <trkpt lat="44.45727" lon="-1.24152">
        <ele>-7.55</ele>
        <time>2021-07-02T18:25:00Z</time>
      </trkpt>
      <trkpt lat="44.45719" lon="-1.24146">
        <ele>-5.63</ele>
        <time>2021-07-02T18:25:02Z</time>
      </trkpt>
      <trkpt lat="44.45715" lon="-1.24143">
        <ele>-5.63</ele>
        <time>2021-07-02T18:25:03Z</time>
      </trkpt>
      <trkpt lat="44.45712" lon="-1.24141">
        <ele>-3.71</ele>
        <time>2021-07-02T18:25:04Z</time>
      </trkpt>
      <trkpt lat="44.45709" lon="-1.24138">
        <ele>-2.75</ele>
        <time>2021-07-02T18:25:05Z</time>
      </trkpt>
      <trkpt lat="44.45705" lon="-1.24135">
        <ele>-2.27</ele>
        <time>2021-07-02T18:25:06Z</time>
      </trkpt>
      <trkpt lat="44.45702" lon="-1.24133">
        <ele>-2.27</ele>
        <time>2021-07-02T18:25:07Z</time>
      </trkpt>
      <trkpt lat="44.45699" lon="-1.24131">
        <ele>-1.79</ele>
        <time>2021-07-02T18:25:08Z</time>
      </trkpt>
      <trkpt lat="44.45673" lon="-1.24111">
        <ele>2.06</ele>
        <time>2021-07-02T18:25:18Z</time>
      </trkpt>
      <trkpt lat="44.45669" lon="-1.24107">
        <ele>2.54</ele>
        <time>2021-07-02T18:25:21Z</time>
      </trkpt>
      <trkpt lat="44.45664" lon="-1.24106">
        <ele>2.54</ele>
        <time>2021-07-02T18:25:22Z</time>
      </trkpt>
      <trkpt lat="44.4566" lon="-1.24107">
        <ele>2.54</ele>
        <time>2021-07-02T18:25:23Z</time>
      </trkpt>
      <trkpt lat="44.45608" lon="-1.24134">
        <ele>3.98</ele>
        <time>2021-07-02T18:25:33Z</time>
      </trkpt>
      <trkpt lat="44.45474" lon="-1.24198">
        <ele>3.98</ele>
        <time>2021-07-02T18:25:50Z</time>
      </trkpt>
      <trkpt lat="44.45375" lon="-1.24247">
        <ele>3.02</ele>
        <time>2021-07-02T18:26:03Z</time>
      </trkpt>
      <trkpt lat="44.45369" lon="-1.24249">
        <ele>3.02</ele>
        <time>2021-07-02T18:26:04Z</time>
      </trkpt>
      <trkpt lat="44.45364" lon="-1.24251">
        <ele>3.02</ele>
        <time>2021-07-02T18:26:05Z</time>
      </trkpt>
      <trkpt lat="44.45351" lon="-1.2426">
        <ele>3.02</ele>
        <time>2021-07-02T18:26:07Z</time>
      </trkpt>
      <trkpt lat="44.45349" lon="-1.24265">
        <ele>3.02</ele>
        <time>2021-07-02T18:26:08Z</time>
      </trkpt>
      <trkpt lat="44.45347" lon="-1.24272">
        <ele>2.54</ele>
        <time>2021-07-02T18:26:09Z</time>
      </trkpt>
      <trkpt lat="44.45341" lon="-1.24271">
        <ele>3.02</ele>
        <time>2021-07-02T18:26:10Z</time>
      </trkpt>
      <trkpt lat="44.45337" lon="-1.24264">
        <ele>2.54</ele>
        <time>2021-07-02T18:26:11Z</time>
      </trkpt>
      <trkpt lat="44.4534" lon="-1.2425">
        <ele>2.54</ele>
        <time>2021-07-02T18:26:12Z</time>
      </trkpt>
      <trkpt lat="44.45337" lon="-1.24243">
        <ele>2.54</ele>
        <time>2021-07-02T18:26:13Z</time>
      </trkpt>
      <trkpt lat="44.45295" lon="-1.24142">
        <ele>1.1</ele>
        <time>2021-07-02T18:26:22Z</time>
      </trkpt>
      <trkpt lat="44.45255" lon="-1.24038">
        <ele>0.14</ele>
        <time>2021-07-02T18:26:33Z</time>
      </trkpt>
      <trkpt lat="44.45252" lon="-1.2403">
        <ele>0.14</ele>
        <time>2021-07-02T18:26:34Z</time>
      </trkpt>
      <trkpt lat="44.45249" lon="-1.24023">
        <ele>0.14</ele>
        <time>2021-07-02T18:26:35Z</time>
      </trkpt>
      <trkpt lat="44.45239" lon="-1.24021">
        <ele>0.14</ele>
        <time>2021-07-02T18:26:36Z</time>
      </trkpt>
      <trkpt lat="44.45236" lon="-1.2402">
        <ele>0.62</ele>
        <time>2021-07-02T18:26:37Z</time>
      </trkpt>
      <trkpt lat="44.45236" lon="-1.2402">
        <ele>0.62</ele>
        <time>2021-07-02T18:26:38Z</time>
      </trkpt>
      <trkpt lat="44.45234" lon="-1.24019">
        <ele>1.1</ele>
        <time>2021-07-02T18:26:39Z</time>
      </trkpt>
      <trkpt lat="44.45232" lon="-1.2402">
        <ele>2.06</ele>
        <time>2021-07-02T18:26:41Z</time>
      </trkpt>
      <trkpt lat="44.45227" lon="-1.24022">
        <ele>1.58</ele>
        <time>2021-07-02T18:26:42Z</time>
      </trkpt>
      <trkpt lat="44.45227" lon="-1.24022">
        <ele>1.58</ele>
        <time>2021-07-02T18:26:43Z</time>
      </trkpt>
      <trkpt lat="44.45224" lon="-1.24023">
        <ele>1.58</ele>
        <time>2021-07-02T18:26:44Z</time>
      </trkpt>
      <trkpt lat="44.4522" lon="-1.24024">
        <ele>2.54</ele>
        <time>2021-07-02T18:26:45Z</time>
      </trkpt>
      <trkpt lat="44.45216" lon="-1.24026">
        <ele>2.54</ele>
        <time>2021-07-02T18:26:46Z</time>
      </trkpt>
      <trkpt lat="44.45212" lon="-1.24028">
        <ele>2.54</ele>
        <time>2021-07-02T18:26:47Z</time>
      </trkpt>
      <trkpt lat="44.45202" lon="-1.24026">
        <ele>3.02</ele>
        <time>2021-07-02T18:26:48Z</time>
      </trkpt>
      <trkpt lat="44.45202" lon="-1.24026">
        <ele>3.02</ele>
        <time>2021-07-02T18:26:49Z</time>
      </trkpt>
      <trkpt lat="44.45198" lon="-1.24023">
        <ele>3.5</ele>
        <time>2021-07-02T18:26:50Z</time>
      </trkpt>
      <trkpt lat="44.45194" lon="-1.2402">
        <ele>3.5</ele>
        <time>2021-07-02T18:26:51Z</time>
      </trkpt>
      <trkpt lat="44.45185" lon="-1.24025">
        <ele>3.5</ele>
        <time>2021-07-02T18:26:52Z</time>
      </trkpt>
      <trkpt lat="44.45183" lon="-1.24029">
        <ele>3.5</ele>
        <time>2021-07-02T18:26:53Z</time>
      </trkpt>
      <trkpt lat="44.4518" lon="-1.24035">
        <ele>3.5</ele>
        <time>2021-07-02T18:26:54Z</time>
      </trkpt>
      <trkpt lat="44.45177" lon="-1.24042">
        <ele>3.98</ele>
        <time>2021-07-02T18:26:55Z</time>
      </trkpt>
      <trkpt lat="44.45175" lon="-1.2405">
        <ele>3.98</ele>
        <time>2021-07-02T18:26:56Z</time>
      </trkpt>
      <trkpt lat="44.45147" lon="-1.24154">
        <ele>3.5</ele>
        <time>2021-07-02T18:27:05Z</time>
      </trkpt>
      <trkpt lat="44.45084" lon="-1.24296">
        <ele>0.62</ele>
        <time>2021-07-02T18:27:16Z</time>
      </trkpt>
      <trkpt lat="44.44985" lon="-1.24408">
        <ele>-1.79</ele>
        <time>2021-07-02T18:27:27Z</time>
      </trkpt>
      <trkpt lat="44.44886" lon="-1.2447">
        <ele>0.14</ele>
        <time>2021-07-02T18:27:39Z</time>
      </trkpt>
      <trkpt lat="44.44764" lon="-1.24533">
        <ele>2.06</ele>
        <time>2021-07-02T18:27:54Z</time>
      </trkpt>
      <trkpt lat="44.44635" lon="-1.246">
        <ele>4.46</ele>
        <time>2021-07-02T18:28:09Z</time>
      </trkpt>
      <trkpt lat="44.44522" lon="-1.2466">
        <ele>5.91</ele>
        <time>2021-07-02T18:28:24Z</time>
      </trkpt>
      <trkpt lat="44.44517" lon="-1.24662">
        <ele>5.91</ele>
        <time>2021-07-02T18:28:25Z</time>
      </trkpt>
      <trkpt lat="44.44513" lon="-1.24665">
        <ele>6.39</ele>
        <time>2021-07-02T18:28:26Z</time>
      </trkpt>
      <trkpt lat="44.44493" lon="-1.24673">
        <ele>6.87</ele>
        <time>2021-07-02T18:28:34Z</time>
      </trkpt>
      <trkpt lat="44.44486" lon="-1.24677">
        <ele>6.87</ele>
        <time>2021-07-02T18:28:35Z</time>
      </trkpt>
      <trkpt lat="44.44428" lon="-1.24707">
        <ele>6.39</ele>
        <time>2021-07-02T18:28:44Z</time>
      </trkpt>
      <trkpt lat="44.4438" lon="-1.24732">
        <ele>6.39</ele>
        <time>2021-07-02T18:28:52Z</time>
      </trkpt>
      <trkpt lat="44.44373" lon="-1.24736">
        <ele>6.39</ele>
        <time>2021-07-02T18:28:53Z</time>
      </trkpt>
      <trkpt lat="44.44369" lon="-1.24743">
        <ele>6.39</ele>
        <time>2021-07-02T18:28:54Z</time>
      </trkpt>
      <trkpt lat="44.44369" lon="-1.24743">
        <ele>6.39</ele>
        <time>2021-07-02T18:28:55Z</time>
      </trkpt>
      <trkpt lat="44.44369" lon="-1.24749">
        <ele>6.39</ele>
        <time>2021-07-02T18:28:56Z</time>
      </trkpt>
      <trkpt lat="44.44366" lon="-1.24751">
        <ele>6.39</ele>
        <time>2021-07-02T18:28:57Z</time>
      </trkpt>
      <trkpt lat="44.44363" lon="-1.24753">
        <ele>6.39</ele>
        <time>2021-07-02T18:28:58Z</time>
      </trkpt>
      <trkpt lat="44.44359" lon="-1.24753">
        <ele>6.39</ele>
        <time>2021-07-02T18:28:59Z</time>
      </trkpt>
      <trkpt lat="44.44356" lon="-1.2475">
        <ele>6.39</ele>
        <time>2021-07-02T18:29:00Z</time>
      </trkpt>
      <trkpt lat="44.4435" lon="-1.24748">
        <ele>5.91</ele>
        <time>2021-07-02T18:29:01Z</time>
      </trkpt>
      <trkpt lat="44.44347" lon="-1.2475">
        <ele>5.91</ele>
        <time>2021-07-02T18:29:02Z</time>
      </trkpt>
      <trkpt lat="44.44343" lon="-1.24751">
        <ele>5.42</ele>
        <time>2021-07-02T18:29:03Z</time>
      </trkpt>
      <trkpt lat="44.4434" lon="-1.24753">
        <ele>5.42</ele>
        <time>2021-07-02T18:29:04Z</time>
      </trkpt>
      <trkpt lat="44.44306" lon="-1.24769">
        <ele>5.91</ele>
        <time>2021-07-02T18:29:16Z</time>
      </trkpt>
      <trkpt lat="44.44305" lon="-1.2477">
        <ele>5.91</ele>
        <time>2021-07-02T18:29:17Z</time>
      </trkpt>
      <trkpt lat="44.44303" lon="-1.24766">
        <ele>5.91</ele>
        <time>2021-07-02T18:29:18Z</time>
      </trkpt>
      <trkpt lat="44.44302" lon="-1.2476">
        <ele>5.91</ele>
        <time>2021-07-02T18:29:19Z</time>
      </trkpt>
      <trkpt lat="44.44302" lon="-1.2476">
        <ele>5.91</ele>
        <time>2021-07-02T18:29:20Z</time>
      </trkpt>
      <trkpt lat="44.443" lon="-1.24754">
        <ele>5.91</ele>
        <time>2021-07-02T18:29:21Z</time>
      </trkpt>
      <trkpt lat="44.44298" lon="-1.24747">
        <ele>5.91</ele>
        <time>2021-07-02T18:29:22Z</time>
      </trkpt>
      <trkpt lat="44.44264" lon="-1.24631">
        <ele>6.39</ele>
        <time>2021-07-02T18:29:34Z</time>
      </trkpt>
      <trkpt lat="44.44228" lon="-1.24503">
        <ele>6.39</ele>
        <time>2021-07-02T18:29:46Z</time>
      </trkpt>
      <trkpt lat="44.44175" lon="-1.24319">
        <ele>6.87</ele>
        <time>2021-07-02T18:30:02Z</time>
      </trkpt>
      <trkpt lat="44.44171" lon="-1.24307">
        <ele>7.35</ele>
        <time>2021-07-02T18:30:04Z</time>
      </trkpt>
      <trkpt lat="44.44164" lon="-1.24296">
        <ele>7.83</ele>
        <time>2021-07-02T18:30:06Z</time>
      </trkpt>
      <trkpt lat="44.44159" lon="-1.2429">
        <ele>7.83</ele>
        <time>2021-07-02T18:30:07Z</time>
      </trkpt>
      <trkpt lat="44.44157" lon="-1.24272">
        <ele>7.83</ele>
        <time>2021-07-02T18:30:08Z</time>
      </trkpt>
      <trkpt lat="44.44155" lon="-1.24261">
        <ele>7.83</ele>
        <time>2021-07-02T18:30:10Z</time>
      </trkpt>
      <trkpt lat="44.44153" lon="-1.24252">
        <ele>7.83</ele>
        <time>2021-07-02T18:30:11Z</time>
      </trkpt>
      <trkpt lat="44.44113" lon="-1.24133">
        <ele>7.83</ele>
        <time>2021-07-02T18:30:21Z</time>
      </trkpt>
      <trkpt lat="44.44016" lon="-1.23957">
        <ele>7.35</ele>
        <time>2021-07-02T18:30:35Z</time>
      </trkpt>
      <trkpt lat="44.43922" lon="-1.23779">
        <ele>7.83</ele>
        <time>2021-07-02T18:30:48Z</time>
      </trkpt>
      <trkpt lat="44.43813" lon="-1.23551">
        <ele>9.27</ele>
        <time>2021-07-02T18:31:00Z</time>
      </trkpt>
      <trkpt lat="44.43663" lon="-1.23242">
        <ele>12.15</ele>
        <time>2021-07-02T18:31:14Z</time>
      </trkpt>
      <trkpt lat="44.43512" lon="-1.22898">
        <ele>27.05</ele>
        <time>2021-07-02T18:31:29Z</time>
      </trkpt>
      <trkpt lat="44.43463" lon="-1.22654">
        <ele>30.42</ele>
        <time>2021-07-02T18:31:39Z</time>
      </trkpt>
      <trkpt lat="44.43454" lon="-1.22634">
        <ele>30.42</ele>
        <time>2021-07-02T18:31:40Z</time>
      </trkpt>
      <trkpt lat="44.43444" lon="-1.22612">
        <ele>30.9</ele>
        <time>2021-07-02T18:31:41Z</time>
      </trkpt>
      <trkpt lat="44.43435" lon="-1.22592">
        <ele>30.9</ele>
        <time>2021-07-02T18:31:42Z</time>
      </trkpt>
      <trkpt lat="44.43409" lon="-1.22558">
        <ele>31.86</ele>
        <time>2021-07-02T18:31:43Z</time>
      </trkpt>
      <trkpt lat="44.43409" lon="-1.22558">
        <ele>31.86</ele>
        <time>2021-07-02T18:31:44Z</time>
      </trkpt>
      <trkpt lat="44.43396" lon="-1.22542">
        <ele>32.34</ele>
        <time>2021-07-02T18:31:45Z</time>
      </trkpt>
      <trkpt lat="44.43382" lon="-1.2253">
        <ele>32.82</ele>
        <time>2021-07-02T18:31:46Z</time>
      </trkpt>
      <trkpt lat="44.43272" lon="-1.22467">
        <ele>41.47</ele>
        <time>2021-07-02T18:31:53Z</time>
      </trkpt>
      <trkpt lat="44.43013" lon="-1.22409">
        <ele>52.05</ele>
        <time>2021-07-02T18:32:08Z</time>
      </trkpt>
      <trkpt lat="44.42858" lon="-1.22311">
        <ele>54.93</ele>
        <time>2021-07-02T18:32:17Z</time>
      </trkpt>
      <trkpt lat="44.42642" lon="-1.22141">
        <ele>54.45</ele>
        <time>2021-07-02T18:32:30Z</time>
      </trkpt>
      <trkpt lat="44.42566" lon="-1.22016">
        <ele>53.97</ele>
        <time>2021-07-02T18:32:36Z</time>
      </trkpt>
      <trkpt lat="44.42552" lon="-1.21998">
        <ele>53.01</ele>
        <time>2021-07-02T18:32:37Z</time>
      </trkpt>
      <trkpt lat="44.42538" lon="-1.2198">
        <ele>53.49</ele>
        <time>2021-07-02T18:32:38Z</time>
      </trkpt>
      <trkpt lat="44.42521" lon="-1.21964">
        <ele>52.53</ele>
        <time>2021-07-02T18:32:39Z</time>
      </trkpt>
      <trkpt lat="44.42505" lon="-1.21949">
        <ele>51.09</ele>
        <time>2021-07-02T18:32:40Z</time>
      </trkpt>
      <trkpt lat="44.42487" lon="-1.21938">
        <ele>49.65</ele>
        <time>2021-07-02T18:32:41Z</time>
      </trkpt>
      <trkpt lat="44.42437" lon="-1.21907">
        <ele>48.2</ele>
        <time>2021-07-02T18:32:44Z</time>
      </trkpt>
      <trkpt lat="44.42423" lon="-1.21896">
        <ele>47.24</ele>
        <time>2021-07-02T18:32:45Z</time>
      </trkpt>
      <trkpt lat="44.42412" lon="-1.21882">
        <ele>46.76</ele>
        <time>2021-07-02T18:32:46Z</time>
      </trkpt>
      <trkpt lat="44.42401" lon="-1.21867">
        <ele>45.32</ele>
        <time>2021-07-02T18:32:47Z</time>
      </trkpt>
      <trkpt lat="44.42389" lon="-1.21851">
        <ele>44.36</ele>
        <time>2021-07-02T18:32:48Z</time>
      </trkpt>
      <trkpt lat="44.4238" lon="-1.21829">
        <ele>43.88</ele>
        <time>2021-07-02T18:32:49Z</time>
      </trkpt>
      <trkpt lat="44.42369" lon="-1.21784">
        <ele>43.4</ele>
        <time>2021-07-02T18:32:50Z</time>
      </trkpt>
      <trkpt lat="44.42369" lon="-1.21784">
        <ele>41.47</ele>
        <time>2021-07-02T18:32:51Z</time>
      </trkpt>
      <trkpt lat="44.42362" lon="-1.21733">
        <ele>40.99</ele>
        <time>2021-07-02T18:32:52Z</time>
      </trkpt>
      <trkpt lat="44.4236" lon="-1.21706">
        <ele>40.03</ele>
        <time>2021-07-02T18:32:53Z</time>
      </trkpt>
      <trkpt lat="44.42326" lon="-1.21458">
        <ele>44.36</ele>
        <time>2021-07-02T18:33:04Z</time>
      </trkpt>
      <trkpt lat="44.42222" lon="-1.2124">
        <ele>42.44</ele>
        <time>2021-07-02T18:33:14Z</time>
      </trkpt>
      <trkpt lat="44.42184" lon="-1.21146">
        <ele>43.4</ele>
        <time>2021-07-02T18:33:18Z</time>
      </trkpt>
      <trkpt lat="44.42177" lon="-1.21122">
        <ele>42.92</ele>
        <time>2021-07-02T18:33:19Z</time>
      </trkpt>
      <trkpt lat="44.42173" lon="-1.21096">
        <ele>42.92</ele>
        <time>2021-07-02T18:33:20Z</time>
      </trkpt>
      <trkpt lat="44.42171" lon="-1.21069">
        <ele>42.92</ele>
        <time>2021-07-02T18:33:21Z</time>
      </trkpt>
      <trkpt lat="44.42168" lon="-1.21042">
        <ele>42.44</ele>
        <time>2021-07-02T18:33:22Z</time>
      </trkpt>
      <trkpt lat="44.42172" lon="-1.21016">
        <ele>42.44</ele>
        <time>2021-07-02T18:33:23Z</time>
      </trkpt>
      <trkpt lat="44.42177" lon="-1.2099">
        <ele>42.44</ele>
        <time>2021-07-02T18:33:24Z</time>
      </trkpt>
      <trkpt lat="44.42181" lon="-1.20965">
        <ele>41.47</ele>
        <time>2021-07-02T18:33:25Z</time>
      </trkpt>
      <trkpt lat="44.42209" lon="-1.20736">
        <ele>35.71</ele>
        <time>2021-07-02T18:33:34Z</time>
      </trkpt>
      <trkpt lat="44.42171" lon="-1.20535">
        <ele>34.26</ele>
        <time>2021-07-02T18:33:42Z</time>
      </trkpt>
      <trkpt lat="44.42068" lon="-1.20324">
        <ele>41.47</ele>
        <time>2021-07-02T18:33:51Z</time>
      </trkpt>
      <trkpt lat="44.41982" lon="-1.20142">
        <ele>38.11</ele>
        <time>2021-07-02T18:34:01Z</time>
      </trkpt>
      <trkpt lat="44.4194" lon="-1.2003">
        <ele>33.3</ele>
        <time>2021-07-02T18:34:06Z</time>
      </trkpt>
      <trkpt lat="44.41935" lon="-1.20006">
        <ele>32.34</ele>
        <time>2021-07-02T18:34:07Z</time>
      </trkpt>
      <trkpt lat="44.4193" lon="-1.19978">
        <ele>32.34</ele>
        <time>2021-07-02T18:34:08Z</time>
      </trkpt>
      <trkpt lat="44.41913" lon="-1.19731">
        <ele>36.67</ele>
        <time>2021-07-02T18:34:17Z</time>
      </trkpt>
      <trkpt lat="44.41872" lon="-1.19446">
        <ele>35.23</ele>
        <time>2021-07-02T18:34:28Z</time>
      </trkpt>
      <trkpt lat="44.41823" lon="-1.19246">
        <ele>35.23</ele>
        <time>2021-07-02T18:34:36Z</time>
      </trkpt>
      <trkpt lat="44.41821" lon="-1.1922">
        <ele>36.67</ele>
        <time>2021-07-02T18:34:37Z</time>
      </trkpt>
      <trkpt lat="44.41819" lon="-1.19195">
        <ele>37.15</ele>
        <time>2021-07-02T18:34:38Z</time>
      </trkpt>
      <trkpt lat="44.41813" lon="-1.1912">
        <ele>37.63</ele>
        <time>2021-07-02T18:34:40Z</time>
      </trkpt>
      <trkpt lat="44.41813" lon="-1.1912">
        <ele>37.15</ele>
        <time>2021-07-02T18:34:41Z</time>
      </trkpt>
      <trkpt lat="44.41807" lon="-1.19096">
        <ele>36.19</ele>
        <time>2021-07-02T18:34:42Z</time>
      </trkpt>
      <trkpt lat="44.41749" lon="-1.18903">
        <ele>30.9</ele>
        <time>2021-07-02T18:34:49Z</time>
      </trkpt>
      <trkpt lat="44.41749" lon="-1.18903">
        <ele>29.94</ele>
        <time>2021-07-02T18:34:50Z</time>
      </trkpt>
      <trkpt lat="44.41737" lon="-1.18883">
        <ele>29.46</ele>
        <time>2021-07-02T18:34:51Z</time>
      </trkpt>
      <trkpt lat="44.417" lon="-1.18829">
        <ele>27.53</ele>
        <time>2021-07-02T18:34:54Z</time>
      </trkpt>
      <trkpt lat="44.41687" lon="-1.1881">
        <ele>26.57</ele>
        <time>2021-07-02T18:34:55Z</time>
      </trkpt>
      <trkpt lat="44.41677" lon="-1.18787">
        <ele>25.61</ele>
        <time>2021-07-02T18:34:56Z</time>
      </trkpt>
      <trkpt lat="44.41668" lon="-1.18765">
        <ele>25.13</ele>
        <time>2021-07-02T18:34:57Z</time>
      </trkpt>
      <trkpt lat="44.41663" lon="-1.1874">
        <ele>24.65</ele>
        <time>2021-07-02T18:34:58Z</time>
      </trkpt>
      <trkpt lat="44.41659" lon="-1.18713">
        <ele>22.73</ele>
        <time>2021-07-02T18:34:59Z</time>
      </trkpt>
      <trkpt lat="44.41603" lon="-1.18472">
        <ele>19.84</ele>
        <time>2021-07-02T18:35:08Z</time>
      </trkpt>
      <trkpt lat="44.41509" lon="-1.18166">
        <ele>20.32</ele>
        <time>2021-07-02T18:35:20Z</time>
      </trkpt>
      <trkpt lat="44.41498" lon="-1.18147">
        <ele>20.81</ele>
        <time>2021-07-02T18:35:21Z</time>
      </trkpt>
      <trkpt lat="44.41487" lon="-1.18128">
        <ele>20.81</ele>
        <time>2021-07-02T18:35:22Z</time>
      </trkpt>
      <trkpt lat="44.41473" lon="-1.1811">
        <ele>20.32</ele>
        <time>2021-07-02T18:35:23Z</time>
      </trkpt>
      <trkpt lat="44.41459" lon="-1.18094">
        <ele>19.84</ele>
        <time>2021-07-02T18:35:24Z</time>
      </trkpt>
      <trkpt lat="44.41278" lon="-1.17913">
        <ele>16</ele>
        <time>2021-07-02T18:35:36Z</time>
      </trkpt>
      <trkpt lat="44.41165" lon="-1.17698">
        <ele>16.96</ele>
        <time>2021-07-02T18:35:47Z</time>
      </trkpt>
      <trkpt lat="44.41135" lon="-1.17534">
        <ele>18.4</ele>
        <time>2021-07-02T18:35:54Z</time>
      </trkpt>
      <trkpt lat="44.41121" lon="-1.17324">
        <ele>16.48</ele>
        <time>2021-07-02T18:36:03Z</time>
      </trkpt>
      <trkpt lat="44.41083" lon="-1.17135">
        <ele>16.48</ele>
        <time>2021-07-02T18:36:17Z</time>
      </trkpt>
      <trkpt lat="44.41077" lon="-1.17032">
        <ele>16.48</ele>
        <time>2021-07-02T18:36:26Z</time>
      </trkpt>
      <trkpt lat="44.41077" lon="-1.16965">
        <ele>16.48</ele>
        <time>2021-07-02T18:36:37Z</time>
      </trkpt>
      <trkpt lat="44.41073" lon="-1.16935">
        <ele>16.48</ele>
        <time>2021-07-02T18:36:50Z</time>
      </trkpt>
      <trkpt lat="44.4107" lon="-1.16917">
        <ele>16</ele>
        <time>2021-07-02T18:36:59Z</time>
      </trkpt>
      <trkpt lat="44.41065" lon="-1.16905">
        <ele>16.48</ele>
        <time>2021-07-02T18:37:02Z</time>
      </trkpt>
      <trkpt lat="44.41059" lon="-1.16897">
        <ele>16.48</ele>
        <time>2021-07-02T18:37:03Z</time>
      </trkpt>
      <trkpt lat="44.41056" lon="-1.16895">
        <ele>16.48</ele>
        <time>2021-07-02T18:37:04Z</time>
      </trkpt>
      <trkpt lat="44.41056" lon="-1.16895">
        <ele>16.48</ele>
        <time>2021-07-02T18:37:05Z</time>
      </trkpt>
      <trkpt lat="44.41052" lon="-1.16892">
        <ele>16.48</ele>
        <time>2021-07-02T18:37:06Z</time>
      </trkpt>
      <trkpt lat="44.41045" lon="-1.16882">
        <ele>16.48</ele>
        <time>2021-07-02T18:37:09Z</time>
      </trkpt>
      <trkpt lat="44.41045" lon="-1.16882">
        <ele>16.48</ele>
        <time>2021-07-02T18:37:10Z</time>
      </trkpt>
      <trkpt lat="44.41041" lon="-1.1687">
        <ele>16.48</ele>
        <time>2021-07-02T18:37:11Z</time>
      </trkpt>
      <trkpt lat="44.41027" lon="-1.16841">
        <ele>16.48</ele>
        <time>2021-07-02T18:37:21Z</time>
      </trkpt>
      <trkpt lat="44.41009" lon="-1.16797">
        <ele>15.52</ele>
        <time>2021-07-02T18:37:34Z</time>
      </trkpt>
      <trkpt lat="44.41009" lon="-1.16797">
        <ele>16</ele>
        <time>2021-07-02T18:37:52Z</time>
      </trkpt>
      <trkpt lat="44.40979" lon="-1.1681">
        <ele>15.04</ele>
        <time>2021-07-02T18:37:53Z</time>
      </trkpt>
      <trkpt lat="44.40985" lon="-1.16768">
        <ele>13.6</ele>
        <time>2021-07-02T18:37:55Z</time>
      </trkpt>
      <trkpt lat="44.40985" lon="-1.16768">
        <ele>13.12</ele>
        <time>2021-07-02T18:37:56Z</time>
      </trkpt>
      <trkpt lat="44.40987" lon="-1.16768">
        <ele>13.12</ele>
        <time>2021-07-02T18:37:57Z</time>
      </trkpt>
      <trkpt lat="44.40989" lon="-1.16768">
        <ele>13.12</ele>
        <time>2021-07-02T18:37:58Z</time>
      </trkpt>
      <trkpt lat="44.40991" lon="-1.16768">
        <ele>14.08</ele>
        <time>2021-07-02T18:37:59Z</time>
      </trkpt>
      <trkpt lat="44.40993" lon="-1.16768">
        <ele>15.52</ele>
        <time>2021-07-02T18:38:00Z</time>
      </trkpt>
      <trkpt lat="44.41" lon="-1.16773">
        <ele>16</ele>
        <time>2021-07-02T18:38:01Z</time>
      </trkpt>
      <trkpt lat="44.41" lon="-1.16773">
        <ele>16.48</ele>
        <time>2021-07-02T18:38:02Z</time>
      </trkpt>
      <trkpt lat="44.41005" lon="-1.16786">
        <ele>16.48</ele>
        <time>2021-07-02T18:38:06Z</time>
      </trkpt>
      <trkpt lat="44.41006" lon="-1.16768">
        <ele>16.96</ele>
        <time>2021-07-02T18:38:07Z</time>
      </trkpt>
      <trkpt lat="44.41006" lon="-1.16768">
        <ele>16.48</ele>
        <time>2021-07-02T18:38:08Z</time>
      </trkpt>
      <trkpt lat="44.41014" lon="-1.16768">
        <ele>16.48</ele>
        <time>2021-07-02T18:38:20Z</time>
      </trkpt>
      <trkpt lat="44.41014" lon="-1.16768">
        <ele>16</ele>
        <time>2021-07-02T18:46:17Z</time>
      </trkpt>
      <trkpt lat="44.41014" lon="-1.16768">
        <ele>15.52</ele>
        <time>2021-07-02T18:51:47Z</time>
      </trkpt>
      <trkpt lat="44.41014" lon="-1.16768">
        <ele>15.52</ele>
        <time>2021-07-02T18:58:06Z</time>
      </trkpt>
      <trkpt lat="44.41014" lon="-1.16768">
        <ele>16</ele>
        <time>2021-07-02T19:02:55Z</time>
      </trkpt>
      <trkpt lat="44.41014" lon="-1.16768">
        <ele>16.48</ele>
        <time>2021-07-02T19:06:30Z</time>
      </trkpt>
      <trkpt lat="44.41014" lon="-1.16768">
        <ele>16</ele>
        <time>2021-07-02T19:09:35Z</time>
      </trkpt>
      <trkpt lat="44.41014" lon="-1.16768">
        <ele>16</ele>
        <time>2021-07-02T19:10:41Z</time>
      </trkpt>
      <trkpt lat="44.41014" lon="-1.16768">
        <ele>16</ele>
        <time>2021-07-02T19:11:02Z</time>
      </trkpt>
      <trkpt lat="44.41018" lon="-1.16768">
        <ele>16</ele>
        <time>2021-07-02T19:11:03Z</time>
      </trkpt>
      <trkpt lat="44.41018" lon="-1.16768">
        <ele>16</ele>
        <time>2021-07-02T19:11:04Z</time>
      </trkpt>
      <trkpt lat="44.41019" lon="-1.16768">
        <ele>16</ele>
        <time>2021-07-02T19:11:05Z</time>
      </trkpt>
      <trkpt lat="44.4102" lon="-1.16768">
        <ele>16</ele>
        <time>2021-07-02T19:11:06Z</time>
      </trkpt>
      <trkpt lat="44.41022" lon="-1.16768">
        <ele>16</ele>
        <time>2021-07-02T19:11:07Z</time>
      </trkpt>
      <trkpt lat="44.41023" lon="-1.16768">
        <ele>16</ele>
        <time>2021-07-02T19:11:08Z</time>
      </trkpt>
      <trkpt lat="44.41025" lon="-1.16768">
        <ele>16</ele>
        <time>2021-07-02T19:11:09Z</time>
      </trkpt>
      <trkpt lat="44.4106" lon="-1.16753">
        <ele>16</ele>
        <time>2021-07-02T19:11:29Z</time>
      </trkpt>
      <trkpt lat="44.41075" lon="-1.16718">
        <ele>15.52</ele>
        <time>2021-07-02T19:11:43Z</time>
      </trkpt>
      <trkpt lat="44.41073" lon="-1.16647">
        <ele>15.52</ele>
        <time>2021-07-02T19:11:53Z</time>
      </trkpt>
      <trkpt lat="44.41067" lon="-1.16483">
        <ele>16</ele>
        <time>2021-07-02T19:12:06Z</time>
      </trkpt>
      <trkpt lat="44.41036" lon="-1.16333">
        <ele>16.96</ele>
        <time>2021-07-02T19:12:16Z</time>
      </trkpt>
      <trkpt lat="44.41011" lon="-1.16263">
        <ele>17.44</ele>
        <time>2021-07-02T19:12:22Z</time>
      </trkpt>
      <trkpt lat="44.41004" lon="-1.1625">
        <ele>17.44</ele>
        <time>2021-07-02T19:12:23Z</time>
      </trkpt>
      <trkpt lat="44.40996" lon="-1.16239">
        <ele>17.92</ele>
        <time>2021-07-02T19:12:24Z</time>
      </trkpt>
      <trkpt lat="44.40917" lon="-1.16166">
        <ele>19.36</ele>
        <time>2021-07-02T19:12:33Z</time>
      </trkpt>
      <trkpt lat="44.40849" lon="-1.16106">
        <ele>20.32</ele>
        <time>2021-07-02T19:12:44Z</time>
      </trkpt>
      <trkpt lat="44.4078" lon="-1.16031">
        <ele>20.32</ele>
        <time>2021-07-02T19:12:58Z</time>
      </trkpt>
      <trkpt lat="44.40774" lon="-1.16017">
        <ele>20.32</ele>
        <time>2021-07-02T19:13:00Z</time>
      </trkpt>
      <trkpt lat="44.40724" lon="-1.15904">
        <ele>20.32</ele>
        <time>2021-07-02T19:13:13Z</time>
      </trkpt>
      <trkpt lat="44.40658" lon="-1.15718">
        <ele>21.77</ele>
        <time>2021-07-02T19:13:28Z</time>
      </trkpt>
      <trkpt lat="44.40653" lon="-1.15705">
        <ele>21.77</ele>
        <time>2021-07-02T19:13:29Z</time>
      </trkpt>
      <trkpt lat="44.40648" lon="-1.15692">
        <ele>21.29</ele>
        <time>2021-07-02T19:13:30Z</time>
      </trkpt>
      <trkpt lat="44.40602" lon="-1.15587">
        <ele>22.25</ele>
        <time>2021-07-02T19:13:38Z</time>
      </trkpt>
      <trkpt lat="44.40599" lon="-1.15575">
        <ele>22.25</ele>
        <time>2021-07-02T19:13:39Z</time>
      </trkpt>
      <trkpt lat="44.40597" lon="-1.15561">
        <ele>22.25</ele>
        <time>2021-07-02T19:13:40Z</time>
      </trkpt>
      <trkpt lat="44.40595" lon="-1.15547">
        <ele>21.77</ele>
        <time>2021-07-02T19:13:41Z</time>
      </trkpt>
      <trkpt lat="44.40594" lon="-1.15533">
        <ele>22.25</ele>
        <time>2021-07-02T19:13:42Z</time>
      </trkpt>
      <trkpt lat="44.40588" lon="-1.15445">
        <ele>22.73</ele>
        <time>2021-07-02T19:13:49Z</time>
      </trkpt>
      <trkpt lat="44.40586" lon="-1.15437">
        <ele>22.73</ele>
        <time>2021-07-02T19:13:50Z</time>
      </trkpt>
      <trkpt lat="44.40581" lon="-1.15431">
        <ele>22.25</ele>
        <time>2021-07-02T19:13:51Z</time>
      </trkpt>
      <trkpt lat="44.40581" lon="-1.15431">
        <ele>22.25</ele>
        <time>2021-07-02T19:13:52Z</time>
      </trkpt>
      <trkpt lat="44.40573" lon="-1.15425">
        <ele>21.77</ele>
        <time>2021-07-02T19:13:53Z</time>
      </trkpt>
      <trkpt lat="44.40569" lon="-1.15425">
        <ele>21.77</ele>
        <time>2021-07-02T19:13:54Z</time>
      </trkpt>
      <trkpt lat="44.40569" lon="-1.15425">
        <ele>21.29</ele>
        <time>2021-07-02T19:13:55Z</time>
      </trkpt>
      <trkpt lat="44.40563" lon="-1.15427">
        <ele>21.29</ele>
        <time>2021-07-02T19:13:56Z</time>
      </trkpt>
      <trkpt lat="44.40557" lon="-1.15433">
        <ele>21.29</ele>
        <time>2021-07-02T19:13:57Z</time>
      </trkpt>
      <trkpt lat="44.40468" lon="-1.15529">
        <ele>18.88</ele>
        <time>2021-07-02T19:14:09Z</time>
      </trkpt>
      <trkpt lat="44.40321" lon="-1.15698">
        <ele>20.81</ele>
        <time>2021-07-02T19:14:31Z</time>
      </trkpt>
      <trkpt lat="44.40239" lon="-1.15844">
        <ele>20.32</ele>
        <time>2021-07-02T19:14:45Z</time>
      </trkpt>
      <trkpt lat="44.40133" lon="-1.16042">
        <ele>19.36</ele>
        <time>2021-07-02T19:15:01Z</time>
      </trkpt>
      <trkpt lat="44.40028" lon="-1.16232">
        <ele>18.4</ele>
        <time>2021-07-02T19:15:16Z</time>
      </trkpt>
      <trkpt lat="44.40021" lon="-1.16243">
        <ele>19.36</ele>
        <time>2021-07-02T19:15:17Z</time>
      </trkpt>
      <trkpt lat="44.40011" lon="-1.1625">
        <ele>17.92</ele>
        <time>2021-07-02T19:15:18Z</time>
      </trkpt>
      <trkpt lat="44.40002" lon="-1.16256">
        <ele>16.96</ele>
        <time>2021-07-02T19:15:19Z</time>
      </trkpt>
      <trkpt lat="44.39992" lon="-1.16263">
        <ele>16.96</ele>
        <time>2021-07-02T19:15:20Z</time>
      </trkpt>
      <trkpt lat="44.39982" lon="-1.16267">
        <ele>17.44</ele>
        <time>2021-07-02T19:15:21Z</time>
      </trkpt>
      <trkpt lat="44.39971" lon="-1.16269">
        <ele>17.92</ele>
        <time>2021-07-02T19:15:22Z</time>
      </trkpt>
      <trkpt lat="44.39959" lon="-1.16271">
        <ele>17.44</ele>
        <time>2021-07-02T19:15:23Z</time>
      </trkpt>
      <trkpt lat="44.3978" lon="-1.16293">
        <ele>17.44</ele>
        <time>2021-07-02T19:15:40Z</time>
      </trkpt>
      <trkpt lat="44.39654" lon="-1.16341">
        <ele>16.48</ele>
        <time>2021-07-02T19:15:53Z</time>
      </trkpt>
      <trkpt lat="44.39595" lon="-1.16365">
        <ele>16.96</ele>
        <time>2021-07-02T19:16:03Z</time>
      </trkpt>
      <trkpt lat="44.39529" lon="-1.16392">
        <ele>16.96</ele>
        <time>2021-07-02T19:16:15Z</time>
      </trkpt>
      <trkpt lat="44.39525" lon="-1.16394">
        <ele>16.96</ele>
        <time>2021-07-02T19:16:16Z</time>
      </trkpt>
      <trkpt lat="44.3948" lon="-1.16412">
        <ele>16.96</ele>
        <time>2021-07-02T19:16:24Z</time>
      </trkpt>
      <trkpt lat="44.39475" lon="-1.16414">
        <ele>16.96</ele>
        <time>2021-07-02T19:16:25Z</time>
      </trkpt>
      <trkpt lat="44.39474" lon="-1.16414">
        <ele>16.96</ele>
        <time>2021-07-02T19:16:26Z</time>
      </trkpt>
      <trkpt lat="44.39468" lon="-1.16434">
        <ele>16.96</ele>
        <time>2021-07-02T19:16:27Z</time>
      </trkpt>
      <trkpt lat="44.39464" lon="-1.16434">
        <ele>16.48</ele>
        <time>2021-07-02T19:16:28Z</time>
      </trkpt>
      <trkpt lat="44.3946" lon="-1.16434">
        <ele>16.96</ele>
        <time>2021-07-02T19:16:29Z</time>
      </trkpt>
      <trkpt lat="44.39456" lon="-1.16427">
        <ele>16.48</ele>
        <time>2021-07-02T19:16:30Z</time>
      </trkpt>
      <trkpt lat="44.39455" lon="-1.16422">
        <ele>16</ele>
        <time>2021-07-02T19:16:31Z</time>
      </trkpt>
      <trkpt lat="44.39455" lon="-1.16416">
        <ele>16</ele>
        <time>2021-07-02T19:16:32Z</time>
      </trkpt>
      <trkpt lat="44.39457" lon="-1.1641">
        <ele>16</ele>
        <time>2021-07-02T19:16:33Z</time>
      </trkpt>
      <trkpt lat="44.39461" lon="-1.16406">
        <ele>16</ele>
        <time>2021-07-02T19:16:34Z</time>
      </trkpt>
      <trkpt lat="44.39467" lon="-1.16407">
        <ele>16.48</ele>
        <time>2021-07-02T19:16:35Z</time>
      </trkpt>
      <trkpt lat="44.39523" lon="-1.16395">
        <ele>18.4</ele>
        <time>2021-07-02T19:16:46Z</time>
      </trkpt>
      <trkpt lat="44.39523" lon="-1.16395">
        <ele>18.88</ele>
        <time>2021-07-02T19:16:47Z</time>
      </trkpt>
      <trkpt lat="44.39525" lon="-1.16394">
        <ele>19.36</ele>
        <time>2021-07-02T19:16:55Z</time>
      </trkpt>
      <trkpt lat="44.3953" lon="-1.16399">
        <ele>19.36</ele>
        <time>2021-07-02T19:16:56Z</time>
      </trkpt>
      <trkpt lat="44.3953" lon="-1.16399">
        <ele>19.36</ele>
        <time>2021-07-02T19:16:57Z</time>
      </trkpt>
      <trkpt lat="44.39538" lon="-1.16431">
        <ele>19.36</ele>
        <time>2021-07-02T19:17:08Z</time>
      </trkpt>
      <trkpt lat="44.39539" lon="-1.16435">
        <ele>19.36</ele>
        <time>2021-07-02T19:17:09Z</time>
      </trkpt>
      <trkpt lat="44.39539" lon="-1.16435">
        <ele>19.84</ele>
        <time>2021-07-02T19:17:23Z</time>
      </trkpt>
      <trkpt lat="44.39539" lon="-1.16435">
        <ele>20.32</ele>
        <time>2021-07-02T19:18:07Z</time>
      </trkpt>
      <trkpt lat="44.39539" lon="-1.16435">
        <ele>20.81</ele>
        <time>2021-07-02T19:19:28Z</time>
      </trkpt>
      <trkpt lat="44.39539" lon="-1.16435">
        <ele>20.81</ele>
        <time>2021-07-02T19:20:53Z</time>
      </trkpt>
      <trkpt lat="44.39539" lon="-1.16435">
        <ele>20.32</ele>
        <time>2021-07-02T19:21:39Z</time>
      </trkpt>
      <trkpt lat="44.39539" lon="-1.16435">
        <ele>20.81</ele>
        <time>2021-07-02T19:22:17Z</time>
      </trkpt>
      <trkpt lat="44.39539" lon="-1.16435">
        <ele>20.81</ele>
        <time>2021-07-02T19:24:07Z</time>
      </trkpt>
      <trkpt lat="44.39539" lon="-1.16435">
        <ele>20.81</ele>
        <time>2021-07-02T19:25:32Z</time>
      </trkpt>
      <trkpt lat="44.39539" lon="-1.16435">
        <ele>20.81</ele>
        <time>2021-07-02T19:27:24Z</time>
      </trkpt>
      <trkpt lat="44.39543" lon="-1.16453">
        <ele>20.81</ele>
        <time>2021-07-02T19:27:58Z</time>
      </trkpt>
      <trkpt lat="44.3957" lon="-1.1654">
        <ele>20.32</ele>
        <time>2021-07-02T19:28:19Z</time>
      </trkpt>
      <trkpt lat="44.39595" lon="-1.16626">
        <ele>18.4</ele>
        <time>2021-07-02T19:28:34Z</time>
      </trkpt>
      <trkpt lat="44.39605" lon="-1.16661">
        <ele>18.88</ele>
        <time>2021-07-02T19:28:41Z</time>
      </trkpt>
      <trkpt lat="44.39605" lon="-1.16661">
        <ele>18.88</ele>
        <time>2021-07-02T19:28:42Z</time>
      </trkpt>
      <trkpt lat="44.39604" lon="-1.16662">
        <ele>18.88</ele>
        <time>2021-07-02T19:28:43Z</time>
      </trkpt>
      <trkpt lat="44.39601" lon="-1.16663">
        <ele>17.92</ele>
        <time>2021-07-02T19:28:44Z</time>
      </trkpt>
      <trkpt lat="44.39598" lon="-1.16665">
        <ele>17.92</ele>
        <time>2021-07-02T19:28:45Z</time>
      </trkpt>
      <trkpt lat="44.39595" lon="-1.16667">
        <ele>17.92</ele>
        <time>2021-07-02T19:28:46Z</time>
      </trkpt>
      <trkpt lat="44.39541" lon="-1.16696">
        <ele>19.84</ele>
        <time>2021-07-02T19:29:00Z</time>
      </trkpt>
      <trkpt lat="44.39515" lon="-1.16711">
        <ele>19.36</ele>
        <time>2021-07-02T19:29:07Z</time>
      </trkpt>
      <trkpt lat="44.39511" lon="-1.16713">
        <ele>19.36</ele>
        <time>2021-07-02T19:29:08Z</time>
      </trkpt>
      <trkpt lat="44.39493" lon="-1.16723">
        <ele>17.92</ele>
        <time>2021-07-02T19:29:13Z</time>
      </trkpt>
      <trkpt lat="44.39437" lon="-1.16769">
        <ele>16.48</ele>
        <time>2021-07-02T19:29:27Z</time>
      </trkpt>
      <trkpt lat="44.39428" lon="-1.16779">
        <ele>16.96</ele>
        <time>2021-07-02T19:29:29Z</time>
      </trkpt>
      <trkpt lat="44.39424" lon="-1.16785">
        <ele>16.96</ele>
        <time>2021-07-02T19:29:30Z</time>
      </trkpt>
      <trkpt lat="44.3942" lon="-1.16791">
        <ele>16.96</ele>
        <time>2021-07-02T19:29:31Z</time>
      </trkpt>
      <trkpt lat="44.39355" lon="-1.16883">
        <ele>16.48</ele>
        <time>2021-07-02T19:29:47Z</time>
      </trkpt>
      <trkpt lat="44.39324" lon="-1.16924">
        <ele>16.48</ele>
        <time>2021-07-02T19:29:56Z</time>
      </trkpt>
      <trkpt lat="44.39321" lon="-1.16926">
        <ele>16.48</ele>
        <time>2021-07-02T19:29:57Z</time>
      </trkpt>
      <trkpt lat="44.39318" lon="-1.16929">
        <ele>16.48</ele>
        <time>2021-07-02T19:29:58Z</time>
      </trkpt>
      <trkpt lat="44.39316" lon="-1.16915">
        <ele>16.48</ele>
        <time>2021-07-02T19:29:59Z</time>
      </trkpt>
      <trkpt lat="44.39316" lon="-1.16915">
        <ele>16.48</ele>
        <time>2021-07-02T19:30:00Z</time>
      </trkpt>
      <trkpt lat="44.39301" lon="-1.1683">
        <ele>16.96</ele>
        <time>2021-07-02T19:30:10Z</time>
      </trkpt>
      <trkpt lat="44.39299" lon="-1.16802">
        <ele>16.48</ele>
        <time>2021-07-02T19:30:13Z</time>
      </trkpt>
      <trkpt lat="44.39299" lon="-1.16802">
        <ele>16.48</ele>
        <time>2021-07-02T19:30:14Z</time>
      </trkpt>
      <trkpt lat="44.39298" lon="-1.16795">
        <ele>16.48</ele>
        <time>2021-07-02T19:30:15Z</time>
      </trkpt>
      <trkpt lat="44.39298" lon="-1.16786">
        <ele>16.48</ele>
        <time>2021-07-02T19:30:16Z</time>
      </trkpt>
      <trkpt lat="44.39298" lon="-1.16777">
        <ele>16.48</ele>
        <time>2021-07-02T19:30:17Z</time>
      </trkpt>
      <trkpt lat="44.39299" lon="-1.16768">
        <ele>16.48</ele>
        <time>2021-07-02T19:30:18Z</time>
      </trkpt>
      <trkpt lat="44.39333" lon="-1.16618">
        <ele>18.88</ele>
        <time>2021-07-02T19:30:32Z</time>
      </trkpt>
      <trkpt lat="44.39342" lon="-1.16579">
        <ele>19.36</ele>
        <time>2021-07-02T19:30:36Z</time>
      </trkpt>
      <trkpt lat="44.39343" lon="-1.1657">
        <ele>19.36</ele>
        <time>2021-07-02T19:30:37Z</time>
      </trkpt>
      <trkpt lat="44.39344" lon="-1.16561">
        <ele>19.84</ele>
        <time>2021-07-02T19:30:38Z</time>
      </trkpt>
      <trkpt lat="44.39343" lon="-1.16524">
        <ele>19.84</ele>
        <time>2021-07-02T19:30:43Z</time>
      </trkpt>
      <trkpt lat="44.39342" lon="-1.16518">
        <ele>20.32</ele>
        <time>2021-07-02T19:30:44Z</time>
      </trkpt>
      <trkpt lat="44.39342" lon="-1.16512">
        <ele>20.32</ele>
        <time>2021-07-02T19:30:45Z</time>
      </trkpt>
      <trkpt lat="44.3934" lon="-1.16507">
        <ele>20.81</ele>
        <time>2021-07-02T19:30:46Z</time>
      </trkpt>
      <trkpt lat="44.39337" lon="-1.16502">
        <ele>20.81</ele>
        <time>2021-07-02T19:30:47Z</time>
      </trkpt>
      <trkpt lat="44.39337" lon="-1.16502">
        <ele>20.81</ele>
        <time>2021-07-02T19:30:48Z</time>
      </trkpt>
      <trkpt lat="44.39328" lon="-1.16483">
        <ele>20.81</ele>
        <time>2021-07-02T19:30:49Z</time>
      </trkpt>
      <trkpt lat="44.39321" lon="-1.16482">
        <ele>20.81</ele>
        <time>2021-07-02T19:30:50Z</time>
      </trkpt>
      <trkpt lat="44.39316" lon="-1.16478">
        <ele>21.29</ele>
        <time>2021-07-02T19:30:51Z</time>
      </trkpt>
      <trkpt lat="44.39306" lon="-1.16466">
        <ele>21.29</ele>
        <time>2021-07-02T19:30:52Z</time>
      </trkpt>
      <trkpt lat="44.39306" lon="-1.16466">
        <ele>20.81</ele>
        <time>2021-07-02T19:30:53Z</time>
      </trkpt>
      <trkpt lat="44.39256" lon="-1.16383">
        <ele>21.29</ele>
        <time>2021-07-02T19:31:05Z</time>
      </trkpt>
      <trkpt lat="44.39237" lon="-1.16353">
        <ele>21.29</ele>
        <time>2021-07-02T19:31:14Z</time>
      </trkpt>
      <trkpt lat="44.39175" lon="-1.16249">
        <ele>21.29</ele>
        <time>2021-07-02T19:31:27Z</time>
      </trkpt>
      <trkpt lat="44.39141" lon="-1.16194">
        <ele>22.25</ele>
        <time>2021-07-02T19:31:34Z</time>
      </trkpt>
      <trkpt lat="44.39134" lon="-1.16186">
        <ele>22.25</ele>
        <time>2021-07-02T19:31:35Z</time>
      </trkpt>
      <trkpt lat="44.39134" lon="-1.16186">
        <ele>22.25</ele>
        <time>2021-07-02T19:31:36Z</time>
      </trkpt>
      <trkpt lat="44.39125" lon="-1.16181">
        <ele>22.73</ele>
        <time>2021-07-02T19:31:37Z</time>
      </trkpt>
      <trkpt lat="44.39119" lon="-1.16188">
        <ele>22.73</ele>
        <time>2021-07-02T19:31:38Z</time>
      </trkpt>
      <trkpt lat="44.39119" lon="-1.16188">
        <ele>22.73</ele>
        <time>2021-07-02T19:31:39Z</time>
      </trkpt>
      <trkpt lat="44.39112" lon="-1.16191">
        <ele>22.25</ele>
        <time>2021-07-02T19:31:40Z</time>
      </trkpt>
      <trkpt lat="44.39108" lon="-1.1619">
        <ele>22.73</ele>
        <time>2021-07-02T19:31:41Z</time>
      </trkpt>
      <trkpt lat="44.39103" lon="-1.16189">
        <ele>22.25</ele>
        <time>2021-07-02T19:31:42Z</time>
      </trkpt>
      <trkpt lat="44.39098" lon="-1.16182">
        <ele>22.25</ele>
        <time>2021-07-02T19:31:43Z</time>
      </trkpt>
      <trkpt lat="44.39095" lon="-1.16176">
        <ele>21.77</ele>
        <time>2021-07-02T19:31:44Z</time>
      </trkpt>
      <trkpt lat="44.39097" lon="-1.16168">
        <ele>21.77</ele>
        <time>2021-07-02T19:31:45Z</time>
      </trkpt>
      <trkpt lat="44.39099" lon="-1.1616">
        <ele>21.77</ele>
        <time>2021-07-02T19:31:46Z</time>
      </trkpt>
      <trkpt lat="44.39096" lon="-1.16137">
        <ele>21.77</ele>
        <time>2021-07-02T19:31:47Z</time>
      </trkpt>
      <trkpt lat="44.39096" lon="-1.16137">
        <ele>21.77</ele>
        <time>2021-07-02T19:31:48Z</time>
      </trkpt>
      <trkpt lat="44.39092" lon="-1.16127">
        <ele>21.77</ele>
        <time>2021-07-02T19:31:49Z</time>
      </trkpt>
      <trkpt lat="44.39089" lon="-1.16117">
        <ele>22.25</ele>
        <time>2021-07-02T19:31:50Z</time>
      </trkpt>
      <trkpt lat="44.39085" lon="-1.16106">
        <ele>22.25</ele>
        <time>2021-07-02T19:31:51Z</time>
      </trkpt>
      <trkpt lat="44.39081" lon="-1.16095">
        <ele>21.77</ele>
        <time>2021-07-02T19:31:52Z</time>
      </trkpt>
      <trkpt lat="44.39075" lon="-1.16082">
        <ele>21.77</ele>
        <time>2021-07-02T19:31:53Z</time>
      </trkpt>
      <trkpt lat="44.38972" lon="-1.15909">
        <ele>21.29</ele>
        <time>2021-07-02T19:32:08Z</time>
      </trkpt>
      <trkpt lat="44.38846" lon="-1.15698">
        <ele>22.25</ele>
        <time>2021-07-02T19:32:25Z</time>
      </trkpt>
      <trkpt lat="44.38732" lon="-1.15503">
        <ele>23.69</ele>
        <time>2021-07-02T19:32:41Z</time>
      </trkpt>
      <trkpt lat="44.38659" lon="-1.15357">
        <ele>24.65</ele>
        <time>2021-07-02T19:32:52Z</time>
      </trkpt>
      <trkpt lat="44.38653" lon="-1.15346">
        <ele>24.65</ele>
        <time>2021-07-02T19:32:53Z</time>
      </trkpt>
      <trkpt lat="44.38644" lon="-1.15335">
        <ele>23.69</ele>
        <time>2021-07-02T19:32:54Z</time>
      </trkpt>
      <trkpt lat="44.38558" lon="-1.15213">
        <ele>23.21</ele>
        <time>2021-07-02T19:33:05Z</time>
      </trkpt>
      <trkpt lat="44.38442" lon="-1.15013">
        <ele>23.69</ele>
        <time>2021-07-02T19:33:20Z</time>
      </trkpt>
      <trkpt lat="44.38392" lon="-1.14921">
        <ele>24.17</ele>
        <time>2021-07-02T19:33:29Z</time>
      </trkpt>
      <trkpt lat="44.38387" lon="-1.14908">
        <ele>24.17</ele>
        <time>2021-07-02T19:33:30Z</time>
      </trkpt>
      <trkpt lat="44.38387" lon="-1.14908">
        <ele>24.17</ele>
        <time>2021-07-02T19:33:31Z</time>
      </trkpt>
      <trkpt lat="44.38371" lon="-1.14908">
        <ele>24.17</ele>
        <time>2021-07-02T19:33:32Z</time>
      </trkpt>
      <trkpt lat="44.38371" lon="-1.14908">
        <ele>24.17</ele>
        <time>2021-07-02T19:33:33Z</time>
      </trkpt>
      <trkpt lat="44.38367" lon="-1.14904">
        <ele>24.17</ele>
        <time>2021-07-02T19:33:34Z</time>
      </trkpt>
      <trkpt lat="44.38358" lon="-1.14891">
        <ele>24.17</ele>
        <time>2021-07-02T19:33:35Z</time>
      </trkpt>
      <trkpt lat="44.38358" lon="-1.14891">
        <ele>24.17</ele>
        <time>2021-07-02T19:33:36Z</time>
      </trkpt>
      <trkpt lat="44.38357" lon="-1.14875">
        <ele>23.21</ele>
        <time>2021-07-02T19:33:37Z</time>
      </trkpt>
      <trkpt lat="44.38357" lon="-1.14869">
        <ele>23.69</ele>
        <time>2021-07-02T19:33:38Z</time>
      </trkpt>
      <trkpt lat="44.38357" lon="-1.14869">
        <ele>23.69</ele>
        <time>2021-07-02T19:33:39Z</time>
      </trkpt>
      <trkpt lat="44.38357" lon="-1.14869">
        <ele>23.69</ele>
        <time>2021-07-02T19:33:40Z</time>
      </trkpt>
      <trkpt lat="44.38363" lon="-1.14841">
        <ele>23.21</ele>
        <time>2021-07-02T19:33:41Z</time>
      </trkpt>
      <trkpt lat="44.38359" lon="-1.14831">
        <ele>23.69</ele>
        <time>2021-07-02T19:33:42Z</time>
      </trkpt>
      <trkpt lat="44.38311" lon="-1.14725">
        <ele>25.13</ele>
        <time>2021-07-02T19:33:50Z</time>
      </trkpt>
      <trkpt lat="44.38216" lon="-1.1451">
        <ele>24.65</ele>
        <time>2021-07-02T19:34:01Z</time>
      </trkpt>
      <trkpt lat="44.38062" lon="-1.14161">
        <ele>26.09</ele>
        <time>2021-07-02T19:34:17Z</time>
      </trkpt>
      <trkpt lat="44.37908" lon="-1.13809">
        <ele>27.05</ele>
        <time>2021-07-02T19:34:31Z</time>
      </trkpt>
      <trkpt lat="44.37758" lon="-1.13468">
        <ele>27.53</ele>
        <time>2021-07-02T19:34:47Z</time>
      </trkpt>
      <trkpt lat="44.37721" lon="-1.13394">
        <ele>26.57</ele>
        <time>2021-07-02T19:34:52Z</time>
      </trkpt>
      <trkpt lat="44.37713" lon="-1.13384">
        <ele>26.57</ele>
        <time>2021-07-02T19:34:53Z</time>
      </trkpt>
      <trkpt lat="44.37706" lon="-1.13376">
        <ele>26.57</ele>
        <time>2021-07-02T19:34:54Z</time>
      </trkpt>
      <trkpt lat="44.3769" lon="-1.13369">
        <ele>26.09</ele>
        <time>2021-07-02T19:34:56Z</time>
      </trkpt>
      <trkpt lat="44.37683" lon="-1.13361">
        <ele>26.09</ele>
        <time>2021-07-02T19:34:57Z</time>
      </trkpt>
      <trkpt lat="44.37678" lon="-1.13352">
        <ele>26.09</ele>
        <time>2021-07-02T19:34:58Z</time>
      </trkpt>
      <trkpt lat="44.37677" lon="-1.1334">
        <ele>26.09</ele>
        <time>2021-07-02T19:34:59Z</time>
      </trkpt>
      <trkpt lat="44.37676" lon="-1.13331">
        <ele>26.09</ele>
        <time>2021-07-02T19:35:00Z</time>
      </trkpt>
      <trkpt lat="44.3768" lon="-1.13319">
        <ele>26.09</ele>
        <time>2021-07-02T19:35:01Z</time>
      </trkpt>
      <trkpt lat="44.37677" lon="-1.13305">
        <ele>26.57</ele>
        <time>2021-07-02T19:35:02Z</time>
      </trkpt>
      <trkpt lat="44.37674" lon="-1.13293">
        <ele>26.09</ele>
        <time>2021-07-02T19:35:03Z</time>
      </trkpt>
      <trkpt lat="44.37671" lon="-1.13279">
        <ele>26.09</ele>
        <time>2021-07-02T19:35:04Z</time>
      </trkpt>
      <trkpt lat="44.37611" lon="-1.13137">
        <ele>27.05</ele>
        <time>2021-07-02T19:35:12Z</time>
      </trkpt>
      <trkpt lat="44.37491" lon="-1.12862">
        <ele>26.57</ele>
        <time>2021-07-02T19:35:24Z</time>
      </trkpt>
      <trkpt lat="44.37263" lon="-1.1235">
        <ele>28.5</ele>
        <time>2021-07-02T19:35:44Z</time>
      </trkpt>
      <trkpt lat="44.37058" lon="-1.11856">
        <ele>28.02</ele>
        <time>2021-07-02T19:36:02Z</time>
      </trkpt>
      <trkpt lat="44.36938" lon="-1.11462">
        <ele>28.02</ele>
        <time>2021-07-02T19:36:15Z</time>
      </trkpt>
      <trkpt lat="44.36822" lon="-1.11133">
        <ele>28.02</ele>
        <time>2021-07-02T19:36:26Z</time>
      </trkpt>
      <trkpt lat="44.36636" lon="-1.10677">
        <ele>28.5</ele>
        <time>2021-07-02T19:36:43Z</time>
      </trkpt>
      <trkpt lat="44.36412" lon="-1.10134">
        <ele>29.94</ele>
        <time>2021-07-02T19:37:03Z</time>
      </trkpt>
      <trkpt lat="44.36207" lon="-1.0964">
        <ele>30.42</ele>
        <time>2021-07-02T19:37:22Z</time>
      </trkpt>
      <trkpt lat="44.36039" lon="-1.09231">
        <ele>29.46</ele>
        <time>2021-07-02T19:37:38Z</time>
      </trkpt>
      <trkpt lat="44.35971" lon="-1.09065">
        <ele>30.9</ele>
        <time>2021-07-02T19:37:48Z</time>
      </trkpt>
      <trkpt lat="44.35952" lon="-1.09029">
        <ele>30.9</ele>
        <time>2021-07-02T19:37:51Z</time>
      </trkpt>
      <trkpt lat="44.35945" lon="-1.09019">
        <ele>30.42</ele>
        <time>2021-07-02T19:37:52Z</time>
      </trkpt>
      <trkpt lat="44.3594" lon="-1.09011">
        <ele>30.42</ele>
        <time>2021-07-02T19:37:53Z</time>
      </trkpt>
      <trkpt lat="44.35936" lon="-1.09005">
        <ele>30.42</ele>
        <time>2021-07-02T19:37:54Z</time>
      </trkpt>
      <trkpt lat="44.3593" lon="-1.09005">
        <ele>30.42</ele>
        <time>2021-07-02T19:37:55Z</time>
      </trkpt>
      <trkpt lat="44.35923" lon="-1.09003">
        <ele>30.42</ele>
        <time>2021-07-02T19:37:56Z</time>
      </trkpt>
      <trkpt lat="44.35914" lon="-1.08996">
        <ele>30.42</ele>
        <time>2021-07-02T19:37:57Z</time>
      </trkpt>
      <trkpt lat="44.35909" lon="-1.0899">
        <ele>30.42</ele>
        <time>2021-07-02T19:37:58Z</time>
      </trkpt>
      <trkpt lat="44.35908" lon="-1.08975">
        <ele>30.42</ele>
        <time>2021-07-02T19:37:59Z</time>
      </trkpt>
      <trkpt lat="44.35908" lon="-1.08965">
        <ele>30.42</ele>
        <time>2021-07-02T19:38:00Z</time>
      </trkpt>
      <trkpt lat="44.35909" lon="-1.08955">
        <ele>30.42</ele>
        <time>2021-07-02T19:38:01Z</time>
      </trkpt>
      <trkpt lat="44.3591" lon="-1.08943">
        <ele>30.42</ele>
        <time>2021-07-02T19:38:02Z</time>
      </trkpt>
      <trkpt lat="44.35909" lon="-1.08931">
        <ele>30.42</ele>
        <time>2021-07-02T19:38:03Z</time>
      </trkpt>
      <trkpt lat="44.35907" lon="-1.08918">
        <ele>30.42</ele>
        <time>2021-07-02T19:38:04Z</time>
      </trkpt>
      <trkpt lat="44.35905" lon="-1.08902">
        <ele>30.42</ele>
        <time>2021-07-02T19:38:05Z</time>
      </trkpt>
      <trkpt lat="44.35898" lon="-1.08889">
        <ele>29.94</ele>
        <time>2021-07-02T19:38:06Z</time>
      </trkpt>
      <trkpt lat="44.35818" lon="-1.08701">
        <ele>28.5</ele>
        <time>2021-07-02T19:38:15Z</time>
      </trkpt>
      <trkpt lat="44.35715" lon="-1.08455">
        <ele>28.98</ele>
        <time>2021-07-02T19:38:26Z</time>
      </trkpt>
      <trkpt lat="44.3562" lon="-1.08279">
        <ele>30.42</ele>
        <time>2021-07-02T19:38:34Z</time>
      </trkpt>
      <trkpt lat="44.35513" lon="-1.08144">
        <ele>29.94</ele>
        <time>2021-07-02T19:38:45Z</time>
      </trkpt>
      <trkpt lat="44.35394" lon="-1.08031">
        <ele>27.53</ele>
        <time>2021-07-02T19:38:58Z</time>
      </trkpt>
      <trkpt lat="44.35374" lon="-1.08005">
        <ele>27.53</ele>
        <time>2021-07-02T19:39:00Z</time>
      </trkpt>
      <trkpt lat="44.3537" lon="-1.07994">
        <ele>28.02</ele>
        <time>2021-07-02T19:39:01Z</time>
      </trkpt>
      <trkpt lat="44.3537" lon="-1.07994">
        <ele>27.53</ele>
        <time>2021-07-02T19:39:02Z</time>
      </trkpt>
      <trkpt lat="44.35362" lon="-1.07974">
        <ele>27.53</ele>
        <time>2021-07-02T19:39:03Z</time>
      </trkpt>
      <trkpt lat="44.35362" lon="-1.07974">
        <ele>27.53</ele>
        <time>2021-07-02T19:39:04Z</time>
      </trkpt>
      <trkpt lat="44.35356" lon="-1.07967">
        <ele>28.02</ele>
        <time>2021-07-02T19:39:05Z</time>
      </trkpt>
      <trkpt lat="44.35349" lon="-1.07962">
        <ele>28.02</ele>
        <time>2021-07-02T19:39:06Z</time>
      </trkpt>
      <trkpt lat="44.35334" lon="-1.07956">
        <ele>28.02</ele>
        <time>2021-07-02T19:39:07Z</time>
      </trkpt>
      <trkpt lat="44.35334" lon="-1.07956">
        <ele>28.5</ele>
        <time>2021-07-02T19:39:08Z</time>
      </trkpt>
      <trkpt lat="44.35325" lon="-1.07952">
        <ele>28.98</ele>
        <time>2021-07-02T19:39:09Z</time>
      </trkpt>
      <trkpt lat="44.35315" lon="-1.07949">
        <ele>28.98</ele>
        <time>2021-07-02T19:39:10Z</time>
      </trkpt>
      <trkpt lat="44.35305" lon="-1.07944">
        <ele>28.5</ele>
        <time>2021-07-02T19:39:11Z</time>
      </trkpt>
      <trkpt lat="44.35295" lon="-1.0794">
        <ele>28.02</ele>
        <time>2021-07-02T19:39:12Z</time>
      </trkpt>
      <trkpt lat="44.35286" lon="-1.07933">
        <ele>28.02</ele>
        <time>2021-07-02T19:39:13Z</time>
      </trkpt>
      <trkpt lat="44.35172" lon="-1.07814">
        <ele>28.02</ele>
        <time>2021-07-02T19:39:24Z</time>
      </trkpt>
      <trkpt lat="44.35102" lon="-1.07668">
        <ele>28.02</ele>
        <time>2021-07-02T19:39:34Z</time>
      </trkpt>
      <trkpt lat="44.35058" lon="-1.07494">
        <ele>28.5</ele>
        <time>2021-07-02T19:39:47Z</time>
      </trkpt>
      <trkpt lat="44.35035" lon="-1.07391">
        <ele>27.53</ele>
        <time>2021-07-02T19:39:55Z</time>
      </trkpt>
      <trkpt lat="44.35033" lon="-1.07383">
        <ele>27.53</ele>
        <time>2021-07-02T19:39:56Z</time>
      </trkpt>
      <trkpt lat="44.35027" lon="-1.0738">
        <ele>27.53</ele>
        <time>2021-07-02T19:39:57Z</time>
      </trkpt>
      <trkpt lat="44.35021" lon="-1.0738">
        <ele>28.02</ele>
        <time>2021-07-02T19:39:58Z</time>
      </trkpt>
      <trkpt lat="44.35015" lon="-1.0738">
        <ele>28.02</ele>
        <time>2021-07-02T19:39:59Z</time>
      </trkpt>
      <trkpt lat="44.34932" lon="-1.07387">
        <ele>26.57</ele>
        <time>2021-07-02T19:40:11Z</time>
      </trkpt>
      <trkpt lat="44.34929" lon="-1.07388">
        <ele>26.57</ele>
        <time>2021-07-02T19:40:22Z</time>
      </trkpt>
      <trkpt lat="44.34921" lon="-1.0739">
        <ele>26.57</ele>
        <time>2021-07-02T19:40:23Z</time>
      </trkpt>
      <trkpt lat="44.34921" lon="-1.0739">
        <ele>26.57</ele>
        <time>2021-07-02T19:40:24Z</time>
      </trkpt>
      <trkpt lat="44.34921" lon="-1.07387">
        <ele>26.57</ele>
        <time>2021-07-02T19:40:25Z</time>
      </trkpt>
      <trkpt lat="44.34921" lon="-1.07379">
        <ele>26.09</ele>
        <time>2021-07-02T19:40:26Z</time>
      </trkpt>
      <trkpt lat="44.34921" lon="-1.07379">
        <ele>26.09</ele>
        <time>2021-07-02T19:40:27Z</time>
      </trkpt>
      <trkpt lat="44.34921" lon="-1.07374">
        <ele>26.09</ele>
        <time>2021-07-02T19:40:28Z</time>
      </trkpt>
      <trkpt lat="44.34921" lon="-1.07369">
        <ele>25.61</ele>
        <time>2021-07-02T19:40:29Z</time>
      </trkpt>
      <trkpt lat="44.34921" lon="-1.07362">
        <ele>25.61</ele>
        <time>2021-07-02T19:40:30Z</time>
      </trkpt>
      <trkpt lat="44.34921" lon="-1.07355">
        <ele>25.61</ele>
        <time>2021-07-02T19:40:31Z</time>
      </trkpt>
      <trkpt lat="44.34919" lon="-1.07349">
        <ele>25.13</ele>
        <time>2021-07-02T19:40:32Z</time>
      </trkpt>
      <trkpt lat="44.34912" lon="-1.07322">
        <ele>25.13</ele>
        <time>2021-07-02T19:40:39Z</time>
      </trkpt>
      <trkpt lat="44.34894" lon="-1.0726">
        <ele>23.21</ele>
        <time>2021-07-02T19:40:50Z</time>
      </trkpt>
      <trkpt lat="44.34893" lon="-1.07256">
        <ele>22.73</ele>
        <time>2021-07-02T19:40:51Z</time>
      </trkpt>
      <trkpt lat="44.34891" lon="-1.07256">
        <ele>22.73</ele>
        <time>2021-07-02T19:40:52Z</time>
      </trkpt>
      <trkpt lat="44.34878" lon="-1.07251">
        <ele>22.25</ele>
        <time>2021-07-02T19:40:55Z</time>
      </trkpt>
      <trkpt lat="44.34818" lon="-1.07221">
        <ele>25.61</ele>
        <time>2021-07-02T19:41:03Z</time>
      </trkpt>
      <trkpt lat="44.34811" lon="-1.07217">
        <ele>25.61</ele>
        <time>2021-07-02T19:41:04Z</time>
      </trkpt>
      <trkpt lat="44.34805" lon="-1.07212">
        <ele>25.61</ele>
        <time>2021-07-02T19:41:05Z</time>
      </trkpt>
      <trkpt lat="44.34788" lon="-1.07188">
        <ele>25.61</ele>
        <time>2021-07-02T19:41:11Z</time>
      </trkpt>
      <trkpt lat="44.34757" lon="-1.07135">
        <ele>24.65</ele>
        <time>2021-07-02T19:41:20Z</time>
      </trkpt>
      <trkpt lat="44.34712" lon="-1.07043">
        <ele>21.77</ele>
        <time>2021-07-02T19:41:29Z</time>
      </trkpt>
      <trkpt lat="44.34647" lon="-1.06874">
        <ele>24.65</ele>
        <time>2021-07-02T19:41:42Z</time>
      </trkpt>
      <trkpt lat="44.34609" lon="-1.06786">
        <ele>25.61</ele>
        <time>2021-07-02T19:41:52Z</time>
      </trkpt>
      <trkpt lat="44.34532" lon="-1.06596">
        <ele>25.13</ele>
        <time>2021-07-02T19:42:06Z</time>
      </trkpt>
      <trkpt lat="44.34454" lon="-1.06408">
        <ele>25.61</ele>
        <time>2021-07-02T19:42:17Z</time>
      </trkpt>
      <trkpt lat="44.34384" lon="-1.06253">
        <ele>26.57</ele>
        <time>2021-07-02T19:42:27Z</time>
      </trkpt>
      <trkpt lat="44.34371" lon="-1.06237">
        <ele>27.53</ele>
        <time>2021-07-02T19:42:29Z</time>
      </trkpt>
      <trkpt lat="44.34365" lon="-1.06229">
        <ele>27.53</ele>
        <time>2021-07-02T19:42:30Z</time>
      </trkpt>
      <trkpt lat="44.34359" lon="-1.06222">
        <ele>27.05</ele>
        <time>2021-07-02T19:42:31Z</time>
      </trkpt>
      <trkpt lat="44.34358" lon="-1.06206">
        <ele>27.05</ele>
        <time>2021-07-02T19:42:32Z</time>
      </trkpt>
      <trkpt lat="44.34356" lon="-1.06192">
        <ele>27.05</ele>
        <time>2021-07-02T19:42:33Z</time>
      </trkpt>
      <trkpt lat="44.34353" lon="-1.06179">
        <ele>27.05</ele>
        <time>2021-07-02T19:42:34Z</time>
      </trkpt>
      <trkpt lat="44.3435" lon="-1.06164">
        <ele>25.61</ele>
        <time>2021-07-02T19:42:35Z</time>
      </trkpt>
      <trkpt lat="44.34345" lon="-1.06147">
        <ele>26.09</ele>
        <time>2021-07-02T19:42:36Z</time>
      </trkpt>
      <trkpt lat="44.34294" lon="-1.06011">
        <ele>24.65</ele>
        <time>2021-07-02T19:42:43Z</time>
      </trkpt>
      <trkpt lat="44.34294" lon="-1.06011">
        <ele>24.17</ele>
        <time>2021-07-02T19:42:44Z</time>
      </trkpt>
      <trkpt lat="44.34289" lon="-1.0599">
        <ele>23.69</ele>
        <time>2021-07-02T19:42:45Z</time>
      </trkpt>
      <trkpt lat="44.34287" lon="-1.05969">
        <ele>23.21</ele>
        <time>2021-07-02T19:42:46Z</time>
      </trkpt>
      <trkpt lat="44.34286" lon="-1.05946">
        <ele>22.73</ele>
        <time>2021-07-02T19:42:47Z</time>
      </trkpt>
      <trkpt lat="44.34288" lon="-1.05902">
        <ele>23.69</ele>
        <time>2021-07-02T19:42:48Z</time>
      </trkpt>
      <trkpt lat="44.34289" lon="-1.05879">
        <ele>24.65</ele>
        <time>2021-07-02T19:42:49Z</time>
      </trkpt>
      <trkpt lat="44.34289" lon="-1.05879">
        <ele>24.65</ele>
        <time>2021-07-02T19:42:50Z</time>
      </trkpt>
      <trkpt lat="44.34293" lon="-1.05858">
        <ele>24.65</ele>
        <time>2021-07-02T19:42:51Z</time>
      </trkpt>
      <trkpt lat="44.34309" lon="-1.05729">
        <ele>25.61</ele>
        <time>2021-07-02T19:42:57Z</time>
      </trkpt>
      <trkpt lat="44.34307" lon="-1.05707">
        <ele>26.09</ele>
        <time>2021-07-02T19:42:58Z</time>
      </trkpt>
      <trkpt lat="44.34289" lon="-1.05599">
        <ele>23.21</ele>
        <time>2021-07-02T19:43:03Z</time>
      </trkpt>
      <trkpt lat="44.34285" lon="-1.05579">
        <ele>22.73</ele>
        <time>2021-07-02T19:43:04Z</time>
      </trkpt>
      <trkpt lat="44.34277" lon="-1.0556">
        <ele>23.21</ele>
        <time>2021-07-02T19:43:05Z</time>
      </trkpt>
      <trkpt lat="44.34269" lon="-1.05543">
        <ele>23.21</ele>
        <time>2021-07-02T19:43:06Z</time>
      </trkpt>
      <trkpt lat="44.34257" lon="-1.0553">
        <ele>23.21</ele>
        <time>2021-07-02T19:43:07Z</time>
      </trkpt>
      <trkpt lat="44.34244" lon="-1.05518">
        <ele>23.21</ele>
        <time>2021-07-02T19:43:08Z</time>
      </trkpt>
      <trkpt lat="44.3423" lon="-1.05507">
        <ele>22.73</ele>
        <time>2021-07-02T19:43:09Z</time>
      </trkpt>
      <trkpt lat="44.34104" lon="-1.05377">
        <ele>22.73</ele>
        <time>2021-07-02T19:43:18Z</time>
      </trkpt>
      <trkpt lat="44.33928" lon="-1.05161">
        <ele>22.25</ele>
        <time>2021-07-02T19:43:30Z</time>
      </trkpt>
      <trkpt lat="44.33855" lon="-1.05097">
        <ele>19.36</ele>
        <time>2021-07-02T19:43:35Z</time>
      </trkpt>
      <trkpt lat="44.3383" lon="-1.0508">
        <ele>18.88</ele>
        <time>2021-07-02T19:43:36Z</time>
      </trkpt>
      <trkpt lat="44.3383" lon="-1.0508">
        <ele>18.88</ele>
        <time>2021-07-02T19:43:37Z</time>
      </trkpt>
      <trkpt lat="44.33815" lon="-1.05075">
        <ele>18.4</ele>
        <time>2021-07-02T19:43:38Z</time>
      </trkpt>
      <trkpt lat="44.33799" lon="-1.05073">
        <ele>18.88</ele>
        <time>2021-07-02T19:43:39Z</time>
      </trkpt>
      <trkpt lat="44.33783" lon="-1.05076">
        <ele>19.36</ele>
        <time>2021-07-02T19:43:40Z</time>
      </trkpt>
      <trkpt lat="44.33767" lon="-1.05079">
        <ele>19.36</ele>
        <time>2021-07-02T19:43:41Z</time>
      </trkpt>
      <trkpt lat="44.33753" lon="-1.0509">
        <ele>19.84</ele>
        <time>2021-07-02T19:43:42Z</time>
      </trkpt>
      <trkpt lat="44.33737" lon="-1.05101">
        <ele>20.81</ele>
        <time>2021-07-02T19:43:43Z</time>
      </trkpt>
      <trkpt lat="44.33572" lon="-1.05235">
        <ele>22.25</ele>
        <time>2021-07-02T19:43:54Z</time>
      </trkpt>
      <trkpt lat="44.33521" lon="-1.05295">
        <ele>21.77</ele>
        <time>2021-07-02T19:43:58Z</time>
      </trkpt>
      <trkpt lat="44.33507" lon="-1.05305">
        <ele>22.73</ele>
        <time>2021-07-02T19:43:59Z</time>
      </trkpt>
      <trkpt lat="44.33495" lon="-1.05313">
        <ele>22.25</ele>
        <time>2021-07-02T19:44:00Z</time>
      </trkpt>
      <trkpt lat="44.33481" lon="-1.05317">
        <ele>21.77</ele>
        <time>2021-07-02T19:44:01Z</time>
      </trkpt>
      <trkpt lat="44.33468" lon="-1.05321">
        <ele>22.25</ele>
        <time>2021-07-02T19:44:02Z</time>
      </trkpt>
      <trkpt lat="44.33456" lon="-1.05317">
        <ele>23.21</ele>
        <time>2021-07-02T19:44:03Z</time>
      </trkpt>
      <trkpt lat="44.33441" lon="-1.05312">
        <ele>23.69</ele>
        <time>2021-07-02T19:44:04Z</time>
      </trkpt>
      <trkpt lat="44.33429" lon="-1.05306">
        <ele>24.65</ele>
        <time>2021-07-02T19:44:05Z</time>
      </trkpt>
      <trkpt lat="44.33415" lon="-1.05297">
        <ele>24.65</ele>
        <time>2021-07-02T19:44:06Z</time>
      </trkpt>
      <trkpt lat="44.33282" lon="-1.05208">
        <ele>18.88</ele>
        <time>2021-07-02T19:44:15Z</time>
      </trkpt>
      <trkpt lat="44.33048" lon="-1.05057">
        <ele>20.81</ele>
        <time>2021-07-02T19:44:28Z</time>
      </trkpt>
      <trkpt lat="44.32879" lon="-1.04873">
        <ele>25.13</ele>
        <time>2021-07-02T19:44:38Z</time>
      </trkpt>
      <trkpt lat="44.32593" lon="-1.04537">
        <ele>28.98</ele>
        <time>2021-07-02T19:44:55Z</time>
      </trkpt>
      <trkpt lat="44.32593" lon="-1.04537">
        <ele>29.46</ele>
        <time>2021-07-02T19:44:56Z</time>
      </trkpt>
      <trkpt lat="44.3258" lon="-1.04519">
        <ele>29.46</ele>
        <time>2021-07-02T19:44:57Z</time>
      </trkpt>
      <trkpt lat="44.32571" lon="-1.04496">
        <ele>29.46</ele>
        <time>2021-07-02T19:44:58Z</time>
      </trkpt>
      <trkpt lat="44.32561" lon="-1.04472">
        <ele>28.98</ele>
        <time>2021-07-02T19:44:59Z</time>
      </trkpt>
      <trkpt lat="44.32459" lon="-1.04244">
        <ele>30.9</ele>
        <time>2021-07-02T19:45:09Z</time>
      </trkpt>
      <trkpt lat="44.32243" lon="-1.03889">
        <ele>34.74</ele>
        <time>2021-07-02T19:45:25Z</time>
      </trkpt>
      <trkpt lat="44.32171" lon="-1.03781">
        <ele>32.82</ele>
        <time>2021-07-02T19:45:31Z</time>
      </trkpt>
      <trkpt lat="44.32158" lon="-1.03767">
        <ele>32.34</ele>
        <time>2021-07-02T19:45:32Z</time>
      </trkpt>
      <trkpt lat="44.32145" lon="-1.03755">
        <ele>32.34</ele>
        <time>2021-07-02T19:45:33Z</time>
      </trkpt>
      <trkpt lat="44.32128" lon="-1.03746">
        <ele>32.34</ele>
        <time>2021-07-02T19:45:34Z</time>
      </trkpt>
      <trkpt lat="44.3211" lon="-1.03737">
        <ele>32.34</ele>
        <time>2021-07-02T19:45:35Z</time>
      </trkpt>
      <trkpt lat="44.3181" lon="-1.03632">
        <ele>34.26</ele>
        <time>2021-07-02T19:45:51Z</time>
      </trkpt>
      <trkpt lat="44.31773" lon="-1.03629">
        <ele>34.74</ele>
        <time>2021-07-02T19:45:52Z</time>
      </trkpt>
      <trkpt lat="44.31773" lon="-1.03629">
        <ele>34.74</ele>
        <time>2021-07-02T19:45:53Z</time>
      </trkpt>
      <trkpt lat="44.31753" lon="-1.03629">
        <ele>35.23</ele>
        <time>2021-07-02T19:45:54Z</time>
      </trkpt>
      <trkpt lat="44.31733" lon="-1.03631">
        <ele>35.71</ele>
        <time>2021-07-02T19:45:55Z</time>
      </trkpt>
      <trkpt lat="44.31714" lon="-1.03638">
        <ele>35.71</ele>
        <time>2021-07-02T19:45:56Z</time>
      </trkpt>
      <trkpt lat="44.31696" lon="-1.03645">
        <ele>35.71</ele>
        <time>2021-07-02T19:45:57Z</time>
      </trkpt>
      <trkpt lat="44.31678" lon="-1.03657">
        <ele>34.74</ele>
        <time>2021-07-02T19:45:58Z</time>
      </trkpt>
      <trkpt lat="44.3166" lon="-1.03669">
        <ele>34.74</ele>
        <time>2021-07-02T19:45:59Z</time>
      </trkpt>
      <trkpt lat="44.31447" lon="-1.03824">
        <ele>33.3</ele>
        <time>2021-07-02T19:46:11Z</time>
      </trkpt>
      <trkpt lat="44.3138" lon="-1.03869">
        <ele>36.67</ele>
        <time>2021-07-02T19:46:15Z</time>
      </trkpt>
      <trkpt lat="44.31364" lon="-1.03876">
        <ele>36.67</ele>
        <time>2021-07-02T19:46:16Z</time>
      </trkpt>
      <trkpt lat="44.3135" lon="-1.03879">
        <ele>36.67</ele>
        <time>2021-07-02T19:46:17Z</time>
      </trkpt>
      <trkpt lat="44.31317" lon="-1.03874">
        <ele>36.19</ele>
        <time>2021-07-02T19:46:18Z</time>
      </trkpt>
      <trkpt lat="44.31299" lon="-1.03867">
        <ele>35.23</ele>
        <time>2021-07-02T19:46:19Z</time>
      </trkpt>
      <trkpt lat="44.31299" lon="-1.03867">
        <ele>34.26</ele>
        <time>2021-07-02T19:46:20Z</time>
      </trkpt>
      <trkpt lat="44.31268" lon="-1.03847">
        <ele>33.78</ele>
        <time>2021-07-02T19:46:21Z</time>
      </trkpt>
      <trkpt lat="44.31268" lon="-1.03847">
        <ele>33.3</ele>
        <time>2021-07-02T19:46:22Z</time>
      </trkpt>
      <trkpt lat="44.31027" lon="-1.03681">
        <ele>36.67</ele>
        <time>2021-07-02T19:46:35Z</time>
      </trkpt>
      <trkpt lat="44.30924" lon="-1.03579">
        <ele>38.59</ele>
        <time>2021-07-02T19:46:42Z</time>
      </trkpt>
      <trkpt lat="44.3061" lon="-1.03222">
        <ele>41.95</ele>
        <time>2021-07-02T19:47:00Z</time>
      </trkpt>
      <trkpt lat="44.30239" lon="-1.02798">
        <ele>44.84</ele>
        <time>2021-07-02T19:47:20Z</time>
      </trkpt>
      <trkpt lat="44.2972" lon="-1.02208">
        <ele>47.24</ele>
        <time>2021-07-02T19:47:45Z</time>
      </trkpt>
      <trkpt lat="44.29264" lon="-1.01686">
        <ele>48.68</ele>
        <time>2021-07-02T19:48:08Z</time>
      </trkpt>
      <trkpt lat="44.28705" lon="-1.01033">
        <ele>50.61</ele>
        <time>2021-07-02T19:48:37Z</time>
      </trkpt>
      <trkpt lat="44.2842" lon="-1.00695">
        <ele>52.05</ele>
        <time>2021-07-02T19:48:52Z</time>
      </trkpt>
      <trkpt lat="44.27968" lon="-1.00161">
        <ele>53.01</ele>
        <time>2021-07-02T19:49:16Z</time>
      </trkpt>
      <trkpt lat="44.27567" lon="-0.99689">
        <ele>54.45</ele>
        <time>2021-07-02T19:49:37Z</time>
      </trkpt>
      <trkpt lat="44.2725" lon="-0.99317">
        <ele>54.93</ele>
        <time>2021-07-02T19:49:55Z</time>
      </trkpt>
      <trkpt lat="44.27029" lon="-0.99065">
        <ele>54.45</ele>
        <time>2021-07-02T19:50:10Z</time>
      </trkpt>
      <trkpt lat="44.26918" lon="-0.99015">
        <ele>54.93</ele>
        <time>2021-07-02T19:50:16Z</time>
      </trkpt>
      <trkpt lat="44.26878" lon="-0.99012">
        <ele>55.41</ele>
        <time>2021-07-02T19:50:18Z</time>
      </trkpt>
      <trkpt lat="44.26858" lon="-0.99014">
        <ele>56.37</ele>
        <time>2021-07-02T19:50:19Z</time>
      </trkpt>
      <trkpt lat="44.26838" lon="-0.99016">
        <ele>56.37</ele>
        <time>2021-07-02T19:50:20Z</time>
      </trkpt>
      <trkpt lat="44.26818" lon="-0.99022">
        <ele>56.86</ele>
        <time>2021-07-02T19:50:21Z</time>
      </trkpt>
      <trkpt lat="44.26798" lon="-0.99029">
        <ele>57.34</ele>
        <time>2021-07-02T19:50:22Z</time>
      </trkpt>
      <trkpt lat="44.26458" lon="-0.99159">
        <ele>58.3</ele>
        <time>2021-07-02T19:50:38Z</time>
      </trkpt>
      <trkpt lat="44.26288" lon="-0.99222">
        <ele>58.3</ele>
        <time>2021-07-02T19:50:46Z</time>
      </trkpt>
      <trkpt lat="44.26269" lon="-0.99224">
        <ele>57.34</ele>
        <time>2021-07-02T19:50:47Z</time>
      </trkpt>
      <trkpt lat="44.26248" lon="-0.99223">
        <ele>56.86</ele>
        <time>2021-07-02T19:50:48Z</time>
      </trkpt>
      <trkpt lat="44.26003" lon="-0.99178">
        <ele>56.86</ele>
        <time>2021-07-02T19:50:59Z</time>
      </trkpt>
      <trkpt lat="44.25486" lon="-0.99082">
        <ele>55.89</ele>
        <time>2021-07-02T19:51:22Z</time>
      </trkpt>
      <trkpt lat="44.25122" lon="-0.99014">
        <ele>56.37</ele>
        <time>2021-07-02T19:51:39Z</time>
      </trkpt>
      <trkpt lat="44.24693" lon="-0.98933">
        <ele>54.93</ele>
        <time>2021-07-02T19:51:59Z</time>
      </trkpt>
      <trkpt lat="44.24249" lon="-0.9885">
        <ele>53.97</ele>
        <time>2021-07-02T19:52:20Z</time>
      </trkpt>
      <trkpt lat="44.23741" lon="-0.98754">
        <ele>53.49</ele>
        <time>2021-07-02T19:52:44Z</time>
      </trkpt>
      <trkpt lat="44.23413" lon="-0.98692">
        <ele>52.05</ele>
        <time>2021-07-02T19:53:00Z</time>
      </trkpt>
      <trkpt lat="44.23272" lon="-0.98666">
        <ele>51.57</ele>
        <time>2021-07-02T19:53:10Z</time>
      </trkpt>
      <trkpt lat="44.23123" lon="-0.98639">
        <ele>50.61</ele>
        <time>2021-07-02T19:53:22Z</time>
      </trkpt>
      <trkpt lat="44.23107" lon="-0.98637">
        <ele>50.61</ele>
        <time>2021-07-02T19:53:24Z</time>
      </trkpt>
      <trkpt lat="44.23101" lon="-0.98635">
        <ele>51.09</ele>
        <time>2021-07-02T19:53:25Z</time>
      </trkpt>
      <trkpt lat="44.23096" lon="-0.98635">
        <ele>51.09</ele>
        <time>2021-07-02T19:53:26Z</time>
      </trkpt>
      <trkpt lat="44.23094" lon="-0.98641">
        <ele>51.09</ele>
        <time>2021-07-02T19:53:27Z</time>
      </trkpt>
      <trkpt lat="44.23094" lon="-0.98641">
        <ele>51.57</ele>
        <time>2021-07-02T19:53:28Z</time>
      </trkpt>
      <trkpt lat="44.23093" lon="-0.98644">
        <ele>51.57</ele>
        <time>2021-07-02T19:53:29Z</time>
      </trkpt>
      <trkpt lat="44.23087" lon="-0.98651">
        <ele>51.57</ele>
        <time>2021-07-02T19:53:30Z</time>
      </trkpt>
      <trkpt lat="44.23083" lon="-0.98654">
        <ele>51.57</ele>
        <time>2021-07-02T19:53:31Z</time>
      </trkpt>
      <trkpt lat="44.23076" lon="-0.98654">
        <ele>51.57</ele>
        <time>2021-07-02T19:53:32Z</time>
      </trkpt>
      <trkpt lat="44.23071" lon="-0.98652">
        <ele>52.05</ele>
        <time>2021-07-02T19:53:33Z</time>
      </trkpt>
      <trkpt lat="44.23066" lon="-0.98649">
        <ele>52.05</ele>
        <time>2021-07-02T19:53:34Z</time>
      </trkpt>
      <trkpt lat="44.23061" lon="-0.98643">
        <ele>52.05</ele>
        <time>2021-07-02T19:53:35Z</time>
      </trkpt>
      <trkpt lat="44.23059" lon="-0.98636">
        <ele>52.05</ele>
        <time>2021-07-02T19:53:36Z</time>
      </trkpt>
      <trkpt lat="44.23058" lon="-0.98628">
        <ele>52.05</ele>
        <time>2021-07-02T19:53:37Z</time>
      </trkpt>
      <trkpt lat="44.23062" lon="-0.98617">
        <ele>52.53</ele>
        <time>2021-07-02T19:53:38Z</time>
      </trkpt>
      <trkpt lat="44.23067" lon="-0.98611">
        <ele>52.05</ele>
        <time>2021-07-02T19:53:39Z</time>
      </trkpt>
      <trkpt lat="44.23068" lon="-0.98609">
        <ele>52.05</ele>
        <time>2021-07-02T19:53:40Z</time>
      </trkpt>
      <trkpt lat="44.23079" lon="-0.98589">
        <ele>52.05</ele>
        <time>2021-07-02T19:53:41Z</time>
      </trkpt>
      <trkpt lat="44.23079" lon="-0.98576">
        <ele>53.49</ele>
        <time>2021-07-02T19:53:42Z</time>
      </trkpt>
      <trkpt lat="44.23079" lon="-0.9856">
        <ele>53.97</ele>
        <time>2021-07-02T19:53:43Z</time>
      </trkpt>
      <trkpt lat="44.23094" lon="-0.98405">
        <ele>53.49</ele>
        <time>2021-07-02T19:53:56Z</time>
      </trkpt>
      <trkpt lat="44.23106" lon="-0.98313">
        <ele>53.49</ele>
        <time>2021-07-02T19:54:07Z</time>
      </trkpt>
      <trkpt lat="44.23126" lon="-0.9817">
        <ele>52.53</ele>
        <time>2021-07-02T19:54:17Z</time>
      </trkpt>
      <trkpt lat="44.23136" lon="-0.9795">
        <ele>53.01</ele>
        <time>2021-07-02T19:54:27Z</time>
      </trkpt>
      <trkpt lat="44.231" lon="-0.97706">
        <ele>52.53</ele>
        <time>2021-07-02T19:54:38Z</time>
      </trkpt>
      <trkpt lat="44.23039" lon="-0.9731">
        <ele>53.97</ele>
        <time>2021-07-02T19:54:52Z</time>
      </trkpt>
      <trkpt lat="44.2295" lon="-0.96711">
        <ele>55.41</ele>
        <time>2021-07-02T19:55:12Z</time>
      </trkpt>
      <trkpt lat="44.22957" lon="-0.96433">
        <ele>58.3</ele>
        <time>2021-07-02T19:55:21Z</time>
      </trkpt>
      <trkpt lat="44.22974" lon="-0.95834">
        <ele>57.82</ele>
        <time>2021-07-02T19:55:40Z</time>
      </trkpt>
      <trkpt lat="44.2297" lon="-0.95803">
        <ele>58.3</ele>
        <time>2021-07-02T19:55:41Z</time>
      </trkpt>
      <trkpt lat="44.22958" lon="-0.95745">
        <ele>57.34</ele>
        <time>2021-07-02T19:55:42Z</time>
      </trkpt>
      <trkpt lat="44.22958" lon="-0.95745">
        <ele>57.34</ele>
        <time>2021-07-02T19:55:43Z</time>
      </trkpt>
      <trkpt lat="44.22949" lon="-0.95715">
        <ele>57.34</ele>
        <time>2021-07-02T19:55:44Z</time>
      </trkpt>
      <trkpt lat="44.22938" lon="-0.95688">
        <ele>56.86</ele>
        <time>2021-07-02T19:55:45Z</time>
      </trkpt>
      <trkpt lat="44.22795" lon="-0.95344">
        <ele>56.37</ele>
        <time>2021-07-02T19:55:58Z</time>
      </trkpt>
      <trkpt lat="44.22532" lon="-0.94728">
        <ele>58.3</ele>
        <time>2021-07-02T19:56:22Z</time>
      </trkpt>
      <trkpt lat="44.223" lon="-0.94182">
        <ele>62.14</ele>
        <time>2021-07-02T19:56:44Z</time>
      </trkpt>
      <trkpt lat="44.22183" lon="-0.93877">
        <ele>62.62</ele>
        <time>2021-07-02T19:56:56Z</time>
      </trkpt>
      <trkpt lat="44.22078" lon="-0.93516">
        <ele>62.14</ele>
        <time>2021-07-02T19:57:10Z</time>
      </trkpt>
      <trkpt lat="44.22021" lon="-0.93397">
        <ele>61.18</ele>
        <time>2021-07-02T19:57:17Z</time>
      </trkpt>
      <trkpt lat="44.21898" lon="-0.93265">
        <ele>59.74</ele>
        <time>2021-07-02T19:57:25Z</time>
      </trkpt>
      <trkpt lat="44.21806" lon="-0.93139">
        <ele>65.51</ele>
        <time>2021-07-02T19:57:32Z</time>
      </trkpt>
      <trkpt lat="44.21711" lon="-0.92892">
        <ele>63.58</ele>
        <time>2021-07-02T19:57:43Z</time>
      </trkpt>
      <trkpt lat="44.21669" lon="-0.92784">
        <ele>65.03</ele>
        <time>2021-07-02T19:57:50Z</time>
      </trkpt>
      <trkpt lat="44.21665" lon="-0.92773">
        <ele>65.03</ele>
        <time>2021-07-02T19:57:51Z</time>
      </trkpt>
      <trkpt lat="44.21644" lon="-0.9277">
        <ele>66.47</ele>
        <time>2021-07-02T19:57:52Z</time>
      </trkpt>
      <trkpt lat="44.21644" lon="-0.9277">
        <ele>66.95</ele>
        <time>2021-07-02T19:57:53Z</time>
      </trkpt>
      <trkpt lat="44.21638" lon="-0.92764">
        <ele>67.43</ele>
        <time>2021-07-02T19:57:54Z</time>
      </trkpt>
      <trkpt lat="44.21632" lon="-0.92754">
        <ele>68.39</ele>
        <time>2021-07-02T19:57:55Z</time>
      </trkpt>
      <trkpt lat="44.21631" lon="-0.92745">
        <ele>68.87</ele>
        <time>2021-07-02T19:57:56Z</time>
      </trkpt>
      <trkpt lat="44.2163" lon="-0.92734">
        <ele>69.83</ele>
        <time>2021-07-02T19:57:57Z</time>
      </trkpt>
      <trkpt lat="44.21627" lon="-0.92725">
        <ele>70.31</ele>
        <time>2021-07-02T19:57:58Z</time>
      </trkpt>
      <trkpt lat="44.21622" lon="-0.92717">
        <ele>70.79</ele>
        <time>2021-07-02T19:57:59Z</time>
      </trkpt>
      <trkpt lat="44.21617" lon="-0.92707">
        <ele>72.24</ele>
        <time>2021-07-02T19:58:00Z</time>
      </trkpt>
      <trkpt lat="44.21611" lon="-0.92697">
        <ele>71.76</ele>
        <time>2021-07-02T19:58:01Z</time>
      </trkpt>
      <trkpt lat="44.21527" lon="-0.92565">
        <ele>69.35</ele>
        <time>2021-07-02T19:58:11Z</time>
      </trkpt>
      <trkpt lat="44.21415" lon="-0.9241">
        <ele>62.14</ele>
        <time>2021-07-02T19:58:22Z</time>
      </trkpt>
      <trkpt lat="44.21311" lon="-0.92302">
        <ele>62.14</ele>
        <time>2021-07-02T19:58:33Z</time>
      </trkpt>
      <trkpt lat="44.21302" lon="-0.92297">
        <ele>62.62</ele>
        <time>2021-07-02T19:58:34Z</time>
      </trkpt>
      <trkpt lat="44.21291" lon="-0.9229">
        <ele>63.1</ele>
        <time>2021-07-02T19:58:35Z</time>
      </trkpt>
      <trkpt lat="44.21257" lon="-0.92275">
        <ele>65.51</ele>
        <time>2021-07-02T19:58:38Z</time>
      </trkpt>
      <trkpt lat="44.21248" lon="-0.92272">
        <ele>65.99</ele>
        <time>2021-07-02T19:58:39Z</time>
      </trkpt>
      <trkpt lat="44.21239" lon="-0.92269">
        <ele>66.95</ele>
        <time>2021-07-02T19:58:40Z</time>
      </trkpt>
      <trkpt lat="44.21234" lon="-0.92265">
        <ele>67.43</ele>
        <time>2021-07-02T19:58:41Z</time>
      </trkpt>
      <trkpt lat="44.21227" lon="-0.92254">
        <ele>66.95</ele>
        <time>2021-07-02T19:58:42Z</time>
      </trkpt>
      <trkpt lat="44.21221" lon="-0.92243">
        <ele>66.47</ele>
        <time>2021-07-02T19:58:43Z</time>
      </trkpt>
      <trkpt lat="44.21214" lon="-0.92233">
        <ele>65.99</ele>
        <time>2021-07-02T19:58:44Z</time>
      </trkpt>
      <trkpt lat="44.2121" lon="-0.92224">
        <ele>65.99</ele>
        <time>2021-07-02T19:58:45Z</time>
      </trkpt>
      <trkpt lat="44.21209" lon="-0.92215">
        <ele>65.99</ele>
        <time>2021-07-02T19:58:46Z</time>
      </trkpt>
      <trkpt lat="44.21209" lon="-0.92207">
        <ele>65.99</ele>
        <time>2021-07-02T19:58:47Z</time>
      </trkpt>
      <trkpt lat="44.21208" lon="-0.92198">
        <ele>65.51</ele>
        <time>2021-07-02T19:58:48Z</time>
      </trkpt>
      <trkpt lat="44.21208" lon="-0.92189">
        <ele>65.03</ele>
        <time>2021-07-02T19:58:49Z</time>
      </trkpt>
      <trkpt lat="44.21209" lon="-0.92181">
        <ele>64.55</ele>
        <time>2021-07-02T19:58:50Z</time>
      </trkpt>
      <trkpt lat="44.21211" lon="-0.92173">
        <ele>64.07</ele>
        <time>2021-07-02T19:58:51Z</time>
      </trkpt>
      <trkpt lat="44.21212" lon="-0.92166">
        <ele>63.58</ele>
        <time>2021-07-02T19:58:52Z</time>
      </trkpt>
      <trkpt lat="44.21213" lon="-0.92161">
        <ele>63.1</ele>
        <time>2021-07-02T19:58:53Z</time>
      </trkpt>
      <trkpt lat="44.21214" lon="-0.92156">
        <ele>62.62</ele>
        <time>2021-07-02T19:58:54Z</time>
      </trkpt>
      <trkpt lat="44.21215" lon="-0.92155">
        <ele>62.62</ele>
        <time>2021-07-02T19:58:55Z</time>
      </trkpt>
      <trkpt lat="44.21232" lon="-0.9212">
        <ele>59.74</ele>
        <time>2021-07-02T19:59:05Z</time>
      </trkpt>
      <trkpt lat="44.21235" lon="-0.92113">
        <ele>60.7</ele>
        <time>2021-07-02T19:59:06Z</time>
      </trkpt>
      <trkpt lat="44.21238" lon="-0.92104">
        <ele>61.66</ele>
        <time>2021-07-02T19:59:07Z</time>
      </trkpt>
      <trkpt lat="44.21242" lon="-0.92086">
        <ele>62.14</ele>
        <time>2021-07-02T19:59:08Z</time>
      </trkpt>
      <trkpt lat="44.21242" lon="-0.92086">
        <ele>62.62</ele>
        <time>2021-07-02T19:59:09Z</time>
      </trkpt>
      <trkpt lat="44.21242" lon="-0.92075">
        <ele>63.1</ele>
        <time>2021-07-02T19:59:10Z</time>
      </trkpt>
      <trkpt lat="44.21241" lon="-0.91986">
        <ele>64.55</ele>
        <time>2021-07-02T19:59:20Z</time>
      </trkpt>
      <trkpt lat="44.2124" lon="-0.91969">
        <ele>64.07</ele>
        <time>2021-07-02T19:59:23Z</time>
      </trkpt>
      <trkpt lat="44.2124" lon="-0.91965">
        <ele>64.07</ele>
        <time>2021-07-02T19:59:24Z</time>
      </trkpt>
      <trkpt lat="44.21232" lon="-0.91962">
        <ele>64.55</ele>
        <time>2021-07-02T19:59:25Z</time>
      </trkpt>
      <trkpt lat="44.21228" lon="-0.91962">
        <ele>64.55</ele>
        <time>2021-07-02T19:59:26Z</time>
      </trkpt>
      <trkpt lat="44.21224" lon="-0.91963">
        <ele>64.55</ele>
        <time>2021-07-02T19:59:27Z</time>
      </trkpt>
      <trkpt lat="44.2122" lon="-0.91963">
        <ele>65.51</ele>
        <time>2021-07-02T19:59:28Z</time>
      </trkpt>
      <trkpt lat="44.21213" lon="-0.91959">
        <ele>65.51</ele>
        <time>2021-07-02T19:59:29Z</time>
      </trkpt>
      <trkpt lat="44.21213" lon="-0.91954">
        <ele>65.51</ele>
        <time>2021-07-02T19:59:30Z</time>
      </trkpt>
      <trkpt lat="44.21212" lon="-0.91947">
        <ele>65.99</ele>
        <time>2021-07-02T19:59:31Z</time>
      </trkpt>
      <trkpt lat="44.21211" lon="-0.91938">
        <ele>66.47</ele>
        <time>2021-07-02T19:59:32Z</time>
      </trkpt>
      <trkpt lat="44.21203" lon="-0.9186">
        <ele>66.47</ele>
        <time>2021-07-02T19:59:41Z</time>
      </trkpt>
      <trkpt lat="44.21202" lon="-0.91848">
        <ele>66.47</ele>
        <time>2021-07-02T19:59:42Z</time>
      </trkpt>
      <trkpt lat="44.21202" lon="-0.91848">
        <ele>65.99</ele>
        <time>2021-07-02T19:59:43Z</time>
      </trkpt>
      <trkpt lat="44.21206" lon="-0.91842">
        <ele>65.51</ele>
        <time>2021-07-02T19:59:44Z</time>
      </trkpt>
      <trkpt lat="44.21216" lon="-0.91841">
        <ele>65.51</ele>
        <time>2021-07-02T19:59:45Z</time>
      </trkpt>
      <trkpt lat="44.21292" lon="-0.91832">
        <ele>65.03</ele>
        <time>2021-07-02T19:59:58Z</time>
      </trkpt>
      <trkpt lat="44.21339" lon="-0.91825">
        <ele>65.51</ele>
        <time>2021-07-02T20:00:09Z</time>
      </trkpt>
      <trkpt lat="44.21341" lon="-0.91824">
        <ele>65.51</ele>
        <time>2021-07-02T20:00:10Z</time>
      </trkpt>
      <trkpt lat="44.21343" lon="-0.91825">
        <ele>65.51</ele>
        <time>2021-07-02T20:00:11Z</time>
      </trkpt>
      <trkpt lat="44.21343" lon="-0.9183">
        <ele>65.03</ele>
        <time>2021-07-02T20:00:12Z</time>
      </trkpt>
      <trkpt lat="44.21344" lon="-0.91835">
        <ele>65.03</ele>
        <time>2021-07-02T20:00:13Z</time>
      </trkpt>
      <trkpt lat="44.21348" lon="-0.91873">
        <ele>65.03</ele>
        <time>2021-07-02T20:00:18Z</time>
      </trkpt>
      <trkpt lat="44.21348" lon="-0.91879">
        <ele>65.03</ele>
        <time>2021-07-02T20:00:19Z</time>
      </trkpt>
      <trkpt lat="44.21349" lon="-0.91885">
        <ele>66.47</ele>
        <time>2021-07-02T20:00:20Z</time>
      </trkpt>
      <trkpt lat="44.21355" lon="-0.91888">
        <ele>66.47</ele>
        <time>2021-07-02T20:00:21Z</time>
      </trkpt>
      <trkpt lat="44.21359" lon="-0.91888">
        <ele>66.47</ele>
        <time>2021-07-02T20:00:22Z</time>
      </trkpt>
      <trkpt lat="44.21363" lon="-0.91887">
        <ele>66.47</ele>
        <time>2021-07-02T20:00:23Z</time>
      </trkpt>
      <trkpt lat="44.21379" lon="-0.91886">
        <ele>66.95</ele>
        <time>2021-07-02T20:00:27Z</time>
      </trkpt>
      <trkpt lat="44.21383" lon="-0.91884">
        <ele>65.99</ele>
        <time>2021-07-02T20:00:28Z</time>
      </trkpt>
      <trkpt lat="44.21387" lon="-0.91879">
        <ele>65.03</ele>
        <time>2021-07-02T20:00:29Z</time>
      </trkpt>
      <trkpt lat="44.21391" lon="-0.91873">
        <ele>64.55</ele>
        <time>2021-07-02T20:00:30Z</time>
      </trkpt>
      <trkpt lat="44.21396" lon="-0.91866">
        <ele>64.07</ele>
        <time>2021-07-02T20:00:31Z</time>
      </trkpt>
      <trkpt lat="44.21443" lon="-0.91776">
        <ele>62.14</ele>
        <time>2021-07-02T20:00:39Z</time>
      </trkpt>
      <trkpt lat="44.21495" lon="-0.91591">
        <ele>61.18</ele>
        <time>2021-07-02T20:00:49Z</time>
      </trkpt>
      <trkpt lat="44.21523" lon="-0.91421">
        <ele>65.51</ele>
        <time>2021-07-02T20:00:57Z</time>
      </trkpt>
      <trkpt lat="44.21511" lon="-0.91264">
        <ele>65.51</ele>
        <time>2021-07-02T20:01:04Z</time>
      </trkpt>
      <trkpt lat="44.21499" lon="-0.91157">
        <ele>63.58</ele>
        <time>2021-07-02T20:01:13Z</time>
      </trkpt>
      <trkpt lat="44.21481" lon="-0.90971">
        <ele>66.47</ele>
        <time>2021-07-02T20:01:23Z</time>
      </trkpt>
      <trkpt lat="44.21443" lon="-0.90674">
        <ele>68.87</ele>
        <time>2021-07-02T20:01:36Z</time>
      </trkpt>
      <trkpt lat="44.2143" lon="-0.90588">
        <ele>68.87</ele>
        <time>2021-07-02T20:01:42Z</time>
      </trkpt>
      <trkpt lat="44.21418" lon="-0.90519">
        <ele>69.35</ele>
        <time>2021-07-02T20:01:51Z</time>
      </trkpt>
      <trkpt lat="44.21391" lon="-0.90357">
        <ele>70.31</ele>
        <time>2021-07-02T20:02:00Z</time>
      </trkpt>
      <trkpt lat="44.21348" lon="-0.90195">
        <ele>67.43</ele>
        <time>2021-07-02T20:02:09Z</time>
      </trkpt>
      <trkpt lat="44.21328" lon="-0.9016">
        <ele>66.95</ele>
        <time>2021-07-02T20:02:12Z</time>
      </trkpt>
      <trkpt lat="44.21328" lon="-0.9016">
        <ele>66.95</ele>
        <time>2021-07-02T20:02:13Z</time>
      </trkpt>
      <trkpt lat="44.2132" lon="-0.90147">
        <ele>67.43</ele>
        <time>2021-07-02T20:02:14Z</time>
      </trkpt>
      <trkpt lat="44.21313" lon="-0.90145">
        <ele>67.43</ele>
        <time>2021-07-02T20:02:16Z</time>
      </trkpt>
      <trkpt lat="44.21306" lon="-0.9014">
        <ele>67.43</ele>
        <time>2021-07-02T20:02:17Z</time>
      </trkpt>
      <trkpt lat="44.21299" lon="-0.9012">
        <ele>67.91</ele>
        <time>2021-07-02T20:02:18Z</time>
      </trkpt>
      <trkpt lat="44.21299" lon="-0.9012">
        <ele>68.39</ele>
        <time>2021-07-02T20:02:19Z</time>
      </trkpt>
      <trkpt lat="44.213" lon="-0.90098">
        <ele>68.39</ele>
        <time>2021-07-02T20:02:20Z</time>
      </trkpt>
      <trkpt lat="44.21305" lon="-0.90089">
        <ele>68.39</ele>
        <time>2021-07-02T20:02:21Z</time>
      </trkpt>
      <trkpt lat="44.21305" lon="-0.90089">
        <ele>68.39</ele>
        <time>2021-07-02T20:02:22Z</time>
      </trkpt>
      <trkpt lat="44.21311" lon="-0.90076">
        <ele>68.87</ele>
        <time>2021-07-02T20:02:23Z</time>
      </trkpt>
      <trkpt lat="44.21311" lon="-0.90065">
        <ele>68.87</ele>
        <time>2021-07-02T20:02:24Z</time>
      </trkpt>
      <trkpt lat="44.21311" lon="-0.90036">
        <ele>70.31</ele>
        <time>2021-07-02T20:02:25Z</time>
      </trkpt>
      <trkpt lat="44.21308" lon="-0.9002">
        <ele>71.27</ele>
        <time>2021-07-02T20:02:26Z</time>
      </trkpt>
      <trkpt lat="44.21278" lon="-0.89877">
        <ele>69.83</ele>
        <time>2021-07-02T20:02:34Z</time>
      </trkpt>
      <trkpt lat="44.2124" lon="-0.89668">
        <ele>71.76</ele>
        <time>2021-07-02T20:02:42Z</time>
      </trkpt>
      <trkpt lat="44.2118" lon="-0.89251">
        <ele>71.27</ele>
        <time>2021-07-02T20:02:56Z</time>
      </trkpt>
      <trkpt lat="44.2111" lon="-0.88763">
        <ele>74.16</ele>
        <time>2021-07-02T20:03:12Z</time>
      </trkpt>
      <trkpt lat="44.21097" lon="-0.88621">
        <ele>74.16</ele>
        <time>2021-07-02T20:03:17Z</time>
      </trkpt>
      <trkpt lat="44.21098" lon="-0.88592">
        <ele>73.68</ele>
        <time>2021-07-02T20:03:18Z</time>
      </trkpt>
      <trkpt lat="44.211" lon="-0.88563">
        <ele>73.68</ele>
        <time>2021-07-02T20:03:19Z</time>
      </trkpt>
      <trkpt lat="44.21105" lon="-0.88535">
        <ele>72.72</ele>
        <time>2021-07-02T20:03:20Z</time>
      </trkpt>
      <trkpt lat="44.21112" lon="-0.88506">
        <ele>72.72</ele>
        <time>2021-07-02T20:03:21Z</time>
      </trkpt>
      <trkpt lat="44.21204" lon="-0.88112">
        <ele>70.31</ele>
        <time>2021-07-02T20:03:34Z</time>
      </trkpt>
      <trkpt lat="44.21324" lon="-0.87619">
        <ele>69.35</ele>
        <time>2021-07-02T20:03:50Z</time>
      </trkpt>
      <trkpt lat="44.21448" lon="-0.87098">
        <ele>69.83</ele>
        <time>2021-07-02T20:04:08Z</time>
      </trkpt>
      <trkpt lat="44.21458" lon="-0.86927">
        <ele>71.27</ele>
        <time>2021-07-02T20:04:14Z</time>
      </trkpt>
      <trkpt lat="44.2143" lon="-0.86497">
        <ele>68.87</ele>
        <time>2021-07-02T20:04:28Z</time>
      </trkpt>
      <trkpt lat="44.21398" lon="-0.86024">
        <ele>67.91</ele>
        <time>2021-07-02T20:04:43Z</time>
      </trkpt>
      <trkpt lat="44.21364" lon="-0.85496">
        <ele>65.51</ele>
        <time>2021-07-02T20:05:00Z</time>
      </trkpt>
      <trkpt lat="44.21336" lon="-0.85048">
        <ele>63.58</ele>
        <time>2021-07-02T20:05:14Z</time>
      </trkpt>
      <trkpt lat="44.21312" lon="-0.84665">
        <ele>61.66</ele>
        <time>2021-07-02T20:05:26Z</time>
      </trkpt>
      <trkpt lat="44.21283" lon="-0.84111">
        <ele>62.14</ele>
        <time>2021-07-02T20:05:44Z</time>
      </trkpt>
      <trkpt lat="44.21263" lon="-0.83738">
        <ele>61.18</ele>
        <time>2021-07-02T20:05:57Z</time>
      </trkpt>
      <trkpt lat="44.2125" lon="-0.83487">
        <ele>61.18</ele>
        <time>2021-07-02T20:06:08Z</time>
      </trkpt>
      <trkpt lat="44.21239" lon="-0.83303">
        <ele>60.22</ele>
        <time>2021-07-02T20:06:18Z</time>
      </trkpt>
      <trkpt lat="44.21223" lon="-0.83002">
        <ele>62.14</ele>
        <time>2021-07-02T20:06:34Z</time>
      </trkpt>
      <trkpt lat="44.21204" lon="-0.82795">
        <ele>61.66</ele>
        <time>2021-07-02T20:06:46Z</time>
      </trkpt>
      <trkpt lat="44.21191" lon="-0.82741">
        <ele>62.62</ele>
        <time>2021-07-02T20:06:52Z</time>
      </trkpt>
      <trkpt lat="44.21161" lon="-0.82646">
        <ele>64.55</ele>
        <time>2021-07-02T20:07:03Z</time>
      </trkpt>
      <trkpt lat="44.21128" lon="-0.8253">
        <ele>65.51</ele>
        <time>2021-07-02T20:07:13Z</time>
      </trkpt>
      <trkpt lat="44.21126" lon="-0.82522">
        <ele>65.51</ele>
        <time>2021-07-02T20:07:14Z</time>
      </trkpt>
      <trkpt lat="44.21119" lon="-0.82521">
        <ele>65.03</ele>
        <time>2021-07-02T20:07:15Z</time>
      </trkpt>
      <trkpt lat="44.21113" lon="-0.8252">
        <ele>65.03</ele>
        <time>2021-07-02T20:07:16Z</time>
      </trkpt>
      <trkpt lat="44.21107" lon="-0.82519">
        <ele>65.03</ele>
        <time>2021-07-02T20:07:17Z</time>
      </trkpt>
      <trkpt lat="44.21028" lon="-0.8251">
        <ele>62.62</ele>
        <time>2021-07-02T20:07:25Z</time>
      </trkpt>
      <trkpt lat="44.20936" lon="-0.82491">
        <ele>65.03</ele>
        <time>2021-07-02T20:07:32Z</time>
      </trkpt>
      <trkpt lat="44.20924" lon="-0.82486">
        <ele>65.99</ele>
        <time>2021-07-02T20:07:33Z</time>
      </trkpt>
      <trkpt lat="44.20911" lon="-0.8248">
        <ele>66.47</ele>
        <time>2021-07-02T20:07:34Z</time>
      </trkpt>
      <trkpt lat="44.20793" lon="-0.82348">
        <ele>63.58</ele>
        <time>2021-07-02T20:07:43Z</time>
      </trkpt>
      <trkpt lat="44.20592" lon="-0.82086">
        <ele>64.55</ele>
        <time>2021-07-02T20:07:57Z</time>
      </trkpt>
      <trkpt lat="44.20399" lon="-0.81833">
        <ele>64.55</ele>
        <time>2021-07-02T20:08:09Z</time>
      </trkpt>
      <trkpt lat="44.20116" lon="-0.81464">
        <ele>64.55</ele>
        <time>2021-07-02T20:08:25Z</time>
      </trkpt>
      <trkpt lat="44.19811" lon="-0.81066">
        <ele>65.51</ele>
        <time>2021-07-02T20:08:42Z</time>
      </trkpt>
      <trkpt lat="44.19533" lon="-0.80701">
        <ele>65.03</ele>
        <time>2021-07-02T20:08:58Z</time>
      </trkpt>
      <trkpt lat="44.1945" lon="-0.80545">
        <ele>61.66</ele>
        <time>2021-07-02T20:09:04Z</time>
      </trkpt>
      <trkpt lat="44.19348" lon="-0.80195">
        <ele>64.55</ele>
        <time>2021-07-02T20:09:15Z</time>
      </trkpt>
      <trkpt lat="44.19186" lon="-0.79616">
        <ele>65.51</ele>
        <time>2021-07-02T20:09:33Z</time>
      </trkpt>
      <trkpt lat="44.19127" lon="-0.79339">
        <ele>64.55</ele>
        <time>2021-07-02T20:09:42Z</time>
      </trkpt>
      <trkpt lat="44.19101" lon="-0.79219">
        <ele>60.22</ele>
        <time>2021-07-02T20:09:46Z</time>
      </trkpt>
      <trkpt lat="44.19091" lon="-0.79192">
        <ele>59.74</ele>
        <time>2021-07-02T20:09:47Z</time>
      </trkpt>
      <trkpt lat="44.19078" lon="-0.79169">
        <ele>58.78</ele>
        <time>2021-07-02T20:09:48Z</time>
      </trkpt>
      <trkpt lat="44.19065" lon="-0.79147">
        <ele>57.34</ele>
        <time>2021-07-02T20:09:49Z</time>
      </trkpt>
      <trkpt lat="44.19049" lon="-0.7913">
        <ele>56.37</ele>
        <time>2021-07-02T20:09:50Z</time>
      </trkpt>
      <trkpt lat="44.19033" lon="-0.79113">
        <ele>56.37</ele>
        <time>2021-07-02T20:09:51Z</time>
      </trkpt>
      <trkpt lat="44.18834" lon="-0.78934">
        <ele>55.89</ele>
        <time>2021-07-02T20:10:02Z</time>
      </trkpt>
      <trkpt lat="44.18594" lon="-0.78716">
        <ele>63.1</ele>
        <time>2021-07-02T20:10:16Z</time>
      </trkpt>
      <trkpt lat="44.18411" lon="-0.78443">
        <ele>67.43</ele>
        <time>2021-07-02T20:10:29Z</time>
      </trkpt>
      <trkpt lat="44.18201" lon="-0.7812">
        <ele>66.47</ele>
        <time>2021-07-02T20:10:43Z</time>
      </trkpt>
      <trkpt lat="44.17846" lon="-0.77576">
        <ele>67.91</ele>
        <time>2021-07-02T20:11:05Z</time>
      </trkpt>
      <trkpt lat="44.17567" lon="-0.77146">
        <ele>65.51</ele>
        <time>2021-07-02T20:11:22Z</time>
      </trkpt>
      <trkpt lat="44.17367" lon="-0.76837">
        <ele>66.95</ele>
        <time>2021-07-02T20:11:33Z</time>
      </trkpt>
      <trkpt lat="44.17182" lon="-0.76551">
        <ele>66.47</ele>
        <time>2021-07-02T20:11:45Z</time>
      </trkpt>
      <trkpt lat="44.16904" lon="-0.76122">
        <ele>67.43</ele>
        <time>2021-07-02T20:12:02Z</time>
      </trkpt>
      <trkpt lat="44.16669" lon="-0.7576">
        <ele>66.47</ele>
        <time>2021-07-02T20:12:17Z</time>
      </trkpt>
      <trkpt lat="44.1649" lon="-0.75481">
        <ele>67.43</ele>
        <time>2021-07-02T20:12:29Z</time>
      </trkpt>
      <trkpt lat="44.16269" lon="-0.75139">
        <ele>68.87</ele>
        <time>2021-07-02T20:12:43Z</time>
      </trkpt>
      <trkpt lat="44.15944" lon="-0.7464">
        <ele>70.31</ele>
        <time>2021-07-02T20:13:03Z</time>
      </trkpt>
      <trkpt lat="44.1576" lon="-0.74375">
        <ele>71.76</ele>
        <time>2021-07-02T20:13:14Z</time>
      </trkpt>
      <trkpt lat="44.15671" lon="-0.74301">
        <ele>69.83</ele>
        <time>2021-07-02T20:13:21Z</time>
      </trkpt>
      <trkpt lat="44.15571" lon="-0.74227">
        <ele>68.87</ele>
        <time>2021-07-02T20:13:30Z</time>
      </trkpt>
      <trkpt lat="44.15566" lon="-0.74221">
        <ele>69.35</ele>
        <time>2021-07-02T20:13:31Z</time>
      </trkpt>
      <trkpt lat="44.15559" lon="-0.74212">
        <ele>69.35</ele>
        <time>2021-07-02T20:13:32Z</time>
      </trkpt>
      <trkpt lat="44.15559" lon="-0.74212">
        <ele>69.35</ele>
        <time>2021-07-02T20:13:33Z</time>
      </trkpt>
      <trkpt lat="44.15555" lon="-0.74207">
        <ele>68.87</ele>
        <time>2021-07-02T20:13:42Z</time>
      </trkpt>
      <trkpt lat="44.15548" lon="-0.74203">
        <ele>68.87</ele>
        <time>2021-07-02T20:13:47Z</time>
      </trkpt>
      <trkpt lat="44.15499" lon="-0.74179">
        <ele>68.87</ele>
        <time>2021-07-02T20:13:54Z</time>
      </trkpt>
      <trkpt lat="44.15394" lon="-0.74118">
        <ele>66.95</ele>
        <time>2021-07-02T20:14:03Z</time>
      </trkpt>
      <trkpt lat="44.152" lon="-0.74067">
        <ele>67.43</ele>
        <time>2021-07-02T20:14:18Z</time>
      </trkpt>
      <trkpt lat="44.15189" lon="-0.74064">
        <ele>68.39</ele>
        <time>2021-07-02T20:14:19Z</time>
      </trkpt>
      <trkpt lat="44.15067" lon="-0.74036">
        <ele>66.95</ele>
        <time>2021-07-02T20:14:30Z</time>
      </trkpt>
      <trkpt lat="44.14958" lon="-0.74055">
        <ele>68.39</ele>
        <time>2021-07-02T20:14:42Z</time>
      </trkpt>
      <trkpt lat="44.14895" lon="-0.74069">
        <ele>67.91</ele>
        <time>2021-07-02T20:14:49Z</time>
      </trkpt>
      <trkpt lat="44.14886" lon="-0.74071">
        <ele>67.43</ele>
        <time>2021-07-02T20:14:50Z</time>
      </trkpt>
      <trkpt lat="44.1487" lon="-0.74066">
        <ele>66.95</ele>
        <time>2021-07-02T20:14:51Z</time>
      </trkpt>
      <trkpt lat="44.1487" lon="-0.74066">
        <ele>66.47</ele>
        <time>2021-07-02T20:14:52Z</time>
      </trkpt>
      <trkpt lat="44.14864" lon="-0.74062">
        <ele>66.95</ele>
        <time>2021-07-02T20:14:53Z</time>
      </trkpt>
      <trkpt lat="44.14859" lon="-0.74055">
        <ele>66.95</ele>
        <time>2021-07-02T20:14:54Z</time>
      </trkpt>
      <trkpt lat="44.14854" lon="-0.74047">
        <ele>66.95</ele>
        <time>2021-07-02T20:14:55Z</time>
      </trkpt>
      <trkpt lat="44.14849" lon="-0.74039">
        <ele>67.43</ele>
        <time>2021-07-02T20:14:56Z</time>
      </trkpt>
      <trkpt lat="44.14797" lon="-0.7392">
        <ele>67.91</ele>
        <time>2021-07-02T20:15:07Z</time>
      </trkpt>
      <trkpt lat="44.14711" lon="-0.73704">
        <ele>67.43</ele>
        <time>2021-07-02T20:15:22Z</time>
      </trkpt>
      <trkpt lat="44.14614" lon="-0.73437">
        <ele>69.35</ele>
        <time>2021-07-02T20:15:38Z</time>
      </trkpt>
      <trkpt lat="44.14555" lon="-0.73276">
        <ele>71.27</ele>
        <time>2021-07-02T20:15:47Z</time>
      </trkpt>
      <trkpt lat="44.14488" lon="-0.7314">
        <ele>71.76</ele>
        <time>2021-07-02T20:15:55Z</time>
      </trkpt>
      <trkpt lat="44.14318" lon="-0.72914">
        <ele>73.2</ele>
        <time>2021-07-02T20:16:10Z</time>
      </trkpt>
      <trkpt lat="44.14267" lon="-0.72843">
        <ele>75.12</ele>
        <time>2021-07-02T20:16:16Z</time>
      </trkpt>
      <trkpt lat="44.14224" lon="-0.72763">
        <ele>75.12</ele>
        <time>2021-07-02T20:16:25Z</time>
      </trkpt>
      <trkpt lat="44.1417" lon="-0.72595">
        <ele>73.2</ele>
        <time>2021-07-02T20:16:34Z</time>
      </trkpt>
      <trkpt lat="44.14064" lon="-0.72297">
        <ele>73.68</ele>
        <time>2021-07-02T20:16:47Z</time>
      </trkpt>
      <trkpt lat="44.13888" lon="-0.71953">
        <ele>75.6</ele>
        <time>2021-07-02T20:17:02Z</time>
      </trkpt>
      <trkpt lat="44.13719" lon="-0.71628">
        <ele>75.6</ele>
        <time>2021-07-02T20:17:17Z</time>
      </trkpt>
      <trkpt lat="44.13624" lon="-0.71447">
        <ele>73.68</ele>
        <time>2021-07-02T20:17:27Z</time>
      </trkpt>
      <trkpt lat="44.13583" lon="-0.71387">
        <ele>74.16</ele>
        <time>2021-07-02T20:17:32Z</time>
      </trkpt>
      <trkpt lat="44.13579" lon="-0.71381">
        <ele>74.64</ele>
        <time>2021-07-02T20:17:33Z</time>
      </trkpt>
      <trkpt lat="44.13574" lon="-0.71376">
        <ele>74.64</ele>
        <time>2021-07-02T20:17:34Z</time>
      </trkpt>
      <trkpt lat="44.13571" lon="-0.71373">
        <ele>74.64</ele>
        <time>2021-07-02T20:17:35Z</time>
      </trkpt>
      <trkpt lat="44.13568" lon="-0.7137">
        <ele>74.64</ele>
        <time>2021-07-02T20:17:36Z</time>
      </trkpt>
      <trkpt lat="44.13569" lon="-0.71356">
        <ele>74.64</ele>
        <time>2021-07-02T20:17:37Z</time>
      </trkpt>
      <trkpt lat="44.13572" lon="-0.71351">
        <ele>74.16</ele>
        <time>2021-07-02T20:17:38Z</time>
      </trkpt>
      <trkpt lat="44.13579" lon="-0.71335">
        <ele>74.16</ele>
        <time>2021-07-02T20:17:40Z</time>
      </trkpt>
      <trkpt lat="44.1358" lon="-0.71327">
        <ele>74.16</ele>
        <time>2021-07-02T20:17:41Z</time>
      </trkpt>
      <trkpt lat="44.1358" lon="-0.71316">
        <ele>74.16</ele>
        <time>2021-07-02T20:17:42Z</time>
      </trkpt>
      <trkpt lat="44.13577" lon="-0.71307">
        <ele>74.16</ele>
        <time>2021-07-02T20:17:43Z</time>
      </trkpt>
      <trkpt lat="44.13574" lon="-0.71297">
        <ele>74.16</ele>
        <time>2021-07-02T20:17:44Z</time>
      </trkpt>
      <trkpt lat="44.13525" lon="-0.71168">
        <ele>72.72</ele>
        <time>2021-07-02T20:17:53Z</time>
      </trkpt>
      <trkpt lat="44.13446" lon="-0.70957">
        <ele>74.64</ele>
        <time>2021-07-02T20:18:07Z</time>
      </trkpt>
      <trkpt lat="44.1334" lon="-0.70673">
        <ele>74.16</ele>
        <time>2021-07-02T20:18:22Z</time>
      </trkpt>
      <trkpt lat="44.1323" lon="-0.70382">
        <ele>74.64</ele>
        <time>2021-07-02T20:18:35Z</time>
      </trkpt>
      <trkpt lat="44.13082" lon="-0.69989">
        <ele>75.6</ele>
        <time>2021-07-02T20:18:50Z</time>
      </trkpt>
      <trkpt lat="44.12907" lon="-0.69521">
        <ele>76.56</ele>
        <time>2021-07-02T20:19:06Z</time>
      </trkpt>
      <trkpt lat="44.12744" lon="-0.69088">
        <ele>77.52</ele>
        <time>2021-07-02T20:19:21Z</time>
      </trkpt>
      <trkpt lat="44.12547" lon="-0.68551">
        <ele>77.52</ele>
        <time>2021-07-02T20:19:40Z</time>
      </trkpt>
      <trkpt lat="44.12538" lon="-0.68521">
        <ele>77.04</ele>
        <time>2021-07-02T20:19:41Z</time>
      </trkpt>
      <trkpt lat="44.1246" lon="-0.68054">
        <ele>77.52</ele>
        <time>2021-07-02T20:19:56Z</time>
      </trkpt>
      <trkpt lat="44.1236" lon="-0.67448">
        <ele>79.93</ele>
        <time>2021-07-02T20:20:15Z</time>
      </trkpt>
      <trkpt lat="44.123" lon="-0.67049">
        <ele>86.18</ele>
        <time>2021-07-02T20:20:28Z</time>
      </trkpt>
      <trkpt lat="44.12279" lon="-0.66707">
        <ele>87.14</ele>
        <time>2021-07-02T20:20:39Z</time>
      </trkpt>
      <trkpt lat="44.12253" lon="-0.66191">
        <ele>89.06</ele>
        <time>2021-07-02T20:20:56Z</time>
      </trkpt>
      <trkpt lat="44.12249" lon="-0.66162">
        <ele>89.06</ele>
        <time>2021-07-02T20:20:57Z</time>
      </trkpt>
      <trkpt lat="44.12128" lon="-0.65672">
        <ele>86.18</ele>
        <time>2021-07-02T20:21:14Z</time>
      </trkpt>
      <trkpt lat="44.12035" lon="-0.65291">
        <ele>81.85</ele>
        <time>2021-07-02T20:21:27Z</time>
      </trkpt>
      <trkpt lat="44.11959" lon="-0.64938">
        <ele>90.5</ele>
        <time>2021-07-02T20:21:39Z</time>
      </trkpt>
      <trkpt lat="44.11888" lon="-0.64419">
        <ele>90.98</ele>
        <time>2021-07-02T20:21:56Z</time>
      </trkpt>
      <trkpt lat="44.11812" lon="-0.63836">
        <ele>91.94</ele>
        <time>2021-07-02T20:22:15Z</time>
      </trkpt>
      <trkpt lat="44.11733" lon="-0.63238">
        <ele>91.94</ele>
        <time>2021-07-02T20:22:34Z</time>
      </trkpt>
      <trkpt lat="44.11632" lon="-0.6248">
        <ele>93.87</ele>
        <time>2021-07-02T20:22:57Z</time>
      </trkpt>
      <trkpt lat="44.11508" lon="-0.61548">
        <ele>92.42</ele>
        <time>2021-07-02T20:23:25Z</time>
      </trkpt>
      <trkpt lat="44.11391" lon="-0.60667">
        <ele>89.06</ele>
        <time>2021-07-02T20:23:51Z</time>
      </trkpt>
      <trkpt lat="44.11304" lon="-0.60015">
        <ele>83.29</ele>
        <time>2021-07-02T20:24:10Z</time>
      </trkpt>
      <trkpt lat="44.11223" lon="-0.59408">
        <ele>82.33</ele>
        <time>2021-07-02T20:24:28Z</time>
      </trkpt>
      <trkpt lat="44.11164" lon="-0.58963">
        <ele>78.97</ele>
        <time>2021-07-02T20:24:42Z</time>
      </trkpt>
      <trkpt lat="44.11124" lon="-0.58667">
        <ele>77.04</ele>
        <time>2021-07-02T20:24:53Z</time>
      </trkpt>
      <trkpt lat="44.11086" lon="-0.58378">
        <ele>72.72</ele>
        <time>2021-07-02T20:25:04Z</time>
      </trkpt>
      <trkpt lat="44.11052" lon="-0.58122">
        <ele>70.31</ele>
        <time>2021-07-02T20:25:14Z</time>
      </trkpt>
      <trkpt lat="44.11012" lon="-0.57814">
        <ele>74.64</ele>
        <time>2021-07-02T20:25:26Z</time>
      </trkpt>
      <trkpt lat="44.10954" lon="-0.57388">
        <ele>80.89</ele>
        <time>2021-07-02T20:25:42Z</time>
      </trkpt>
      <trkpt lat="44.109" lon="-0.56977">
        <ele>78</ele>
        <time>2021-07-02T20:25:57Z</time>
      </trkpt>
      <trkpt lat="44.10858" lon="-0.56614">
        <ele>79.45</ele>
        <time>2021-07-02T20:26:09Z</time>
      </trkpt>
      <trkpt lat="44.10821" lon="-0.56209">
        <ele>81.85</ele>
        <time>2021-07-02T20:26:24Z</time>
      </trkpt>
      <trkpt lat="44.10783" lon="-0.55834">
        <ele>81.85</ele>
        <time>2021-07-02T20:26:37Z</time>
      </trkpt>
      <trkpt lat="44.10739" lon="-0.55529">
        <ele>78</ele>
        <time>2021-07-02T20:26:48Z</time>
      </trkpt>
      <trkpt lat="44.1068" lon="-0.55301">
        <ele>75.12</ele>
        <time>2021-07-02T20:26:58Z</time>
      </trkpt>
      <trkpt lat="44.10634" lon="-0.5513">
        <ele>76.56</ele>
        <time>2021-07-02T20:27:08Z</time>
      </trkpt>
      <trkpt lat="44.10631" lon="-0.55117">
        <ele>75.12</ele>
        <time>2021-07-02T20:27:09Z</time>
      </trkpt>
      <trkpt lat="44.10627" lon="-0.55104">
        <ele>75.6</ele>
        <time>2021-07-02T20:27:10Z</time>
      </trkpt>
      <trkpt lat="44.10588" lon="-0.54956">
        <ele>75.12</ele>
        <time>2021-07-02T20:27:20Z</time>
      </trkpt>
      <trkpt lat="44.10576" lon="-0.54924">
        <ele>75.6</ele>
        <time>2021-07-02T20:27:25Z</time>
      </trkpt>
      <trkpt lat="44.10576" lon="-0.54924">
        <ele>76.08</ele>
        <time>2021-07-02T20:27:26Z</time>
      </trkpt>
      <trkpt lat="44.10573" lon="-0.54925">
        <ele>76.08</ele>
        <time>2021-07-02T20:27:27Z</time>
      </trkpt>
      <trkpt lat="44.10571" lon="-0.54926">
        <ele>76.56</ele>
        <time>2021-07-02T20:27:28Z</time>
      </trkpt>
      <trkpt lat="44.10568" lon="-0.54926">
        <ele>77.04</ele>
        <time>2021-07-02T20:27:29Z</time>
      </trkpt>
      <trkpt lat="44.10497" lon="-0.54947">
        <ele>78</ele>
        <time>2021-07-02T20:27:44Z</time>
      </trkpt>
    </trkseg>
  </trk>
</gpx>